Observation data for Caprock Canyons on 01/11/2018      Previous  Date  Next       Current Mesonet Observations  Soil Data  Daily Summary Page  Observations in Plain Language
KQU1 110600Z 22020G25KT 11/M01 A2948 RMK A01 T01121011  RH  042%=      5-min Rain = 0
KQU1 110601Z 22016KT 11/M01 A2948 RMK A01 T01121011  RH  043%=      5-min Rain = 0
KQU1 110602Z 22019KT 11/M01 A2948 RMK A01 T01111011  RH  043%=      5-min Rain = 0
KQU1 110603Z 22020G26KT 11/M01 A2948 RMK A01 T01111010  RH  043%=      5-min Rain = 0
KQU1 110604Z 22018KT 11/M01 A2948 RMK A01 T01111011  RH  043%=      5-min Rain = 0
KQU1 110605Z 22022KT 11/M01 A2948 RMK A01 T01111010  RH  043%=      5-min Rain = 0
KQU1 110606Z 22026KT 11/M01 A2948 RMK A01 T01121010  RH  043%=      5-min Rain = 0
KQU1 110607Z 22022G29KT 11/M01 A2948 RMK A01 T01121010  RH  043%=      5-min Rain = 0
KQU1 110608Z 22022KT 11/M01 A2948 RMK A01 T01121010  RH  043%=      5-min Rain = 0
KQU1 110609Z 22022KT 11/M01 A2948 RMK A01 T01121010  RH  043%=      5-min Rain = 0
KQU1 110610Z 22022G28KT 11/M01 A2948 RMK A01 T01121010  RH  043%=      5-min Rain = 0
KQU1 110611Z 23021KT 11/M01 A2948 RMK A01 T01121010  RH  043%=      5-min Rain = 0
KQU1 110612Z 23024G29KT 11/M01 A2948 RMK A01 T01121009  RH  043%=      5-min Rain = 0
KQU1 110613Z 22020G25KT 11/M01 A2948 RMK A01 T01121010  RH  043%=      5-min Rain = 0
KQU1 110614Z 22020G25KT 11/M01 A2948 RMK A01 T01121009  RH  043%=      5-min Rain = 0
KQU1 110615Z 22021KT 11/M01 A2948 RMK A01 T01111009  RH  043%=      5-min Rain = 0
KQU1 110616Z 22023KT 11/M01 A2948 RMK A01 T01111009  RH  043%=      5-min Rain = 0
KQU1 110617Z 22023KT 11/M01 A2948 RMK A01 T01111009  RH  043%=      5-min Rain = 0
KQU1 110618Z 22022G27KT 11/M01 A2948 RMK A01 T01111009  RH  043%=      5-min Rain = 0
KQU1 110619Z 22019G26KT 11/M01 A2948 RMK A01 T01101009  RH  044%=      5-min Rain = 0
KQU1 110620Z 21022KT 11/M01 A2947 RMK A01 T01101008  RH  044%=      5-min Rain = 0
KQU1 110621Z 22023KT 11/M01 A2948 RMK A01 T01101008  RH  044%=      5-min Rain = 0
KQU1 110622Z 22021G27KT 11/M01 A2948 RMK A01 T01091008  RH  044%=      5-min Rain = 0
KQU1 110623Z 21021KT 11/M01 A2947 RMK A01 T01091008  RH  044%=      5-min Rain = 0
KQU1 110624Z 22022KT 11/M01 A2947 RMK A01 T01081007  RH  045%=      5-min Rain = 0
KQU1 110625Z 22023G31KT 11/M01 A2947 RMK A01 T01081007  RH  045%=      5-min Rain = 0
KQU1 110626Z 21021KT 11/M01 A2947 RMK A01 T01071007  RH  045%=      5-min Rain = 0
KQU1 110627Z 22022KT 11/M01 A2947 RMK A01 T01071007  RH  045%=      5-min Rain = 0
KQU1 110628Z 22025KT 11/M01 A2947 RMK A01 T01061006  RH  046%=      5-min Rain = 0
KQU1 110629Z 22020KT 11/M01 A2947 RMK A01 T01051006  RH  046%=      5-min Rain = 0
KQU1 110630Z 22025G30KT 10/M01 A2947 RMK A01 T01041006  RH  046%=      5-min Rain = 0
KQU1 110631Z 22027G32KT 10/M01 A2947 RMK A01 T01041005  RH  047%=      5-min Rain = 0
KQU1 110632Z 22026KT 10/M00 A2947 RMK A01 T01041004  RH  047%=      5-min Rain = 0
KQU1 110633Z 22026KT 10/M00 A2947 RMK A01 T01031004  RH  047%=      5-min Rain = 0
KQU1 110634Z 22024KT 10/M00 A2947 RMK A01 T01031003  RH  048%=      5-min Rain = 0
KQU1 110635Z 23023KT 10/M00 A2948 RMK A01 T01021003  RH  048%=      5-min Rain = 0
KQU1 110636Z 23026KT 10/M00 A2947 RMK A01 T01021003  RH  048%=      5-min Rain = 0
KQU1 110637Z 22020KT 10/M00 A2948 RMK A01 T01011003  RH  048%=      5-min Rain = 0
KQU1 110638Z 23023KT 10/M00 A2948 RMK A01 T01011002  RH  049%=      5-min Rain = 0
KQU1 110639Z 23022G27KT 10/M00 A2948 RMK A01 T01001002  RH  049%=      5-min Rain = 0
KQU1 110640Z 22026KT 10/M00 A2947 RMK A01 T01001001  RH  049%=      5-min Rain = 0
KQU1 110641Z 23023KT 10/M00 A2947 RMK A01 T01001001  RH  049%=      5-min Rain = 0
KQU1 110642Z 23026G32KT 10/M00 A2948 RMK A01 T01001001  RH  049%=      5-min Rain = 0
KQU1 110643Z 23023KT 10/M00 A2948 RMK A01 T01011001  RH  049%=      5-min Rain = 0
KQU1 110644Z 22021G26KT 10/M00 A2947 RMK A01 T01001001  RH  049%=      5-min Rain = 0
KQU1 110645Z 23026G31KT 10/M00 A2947 RMK A01 T01001001  RH  049%=      5-min Rain = 0
KQU1 110646Z 23022KT 10/M00 A2947 RMK A01 T01001001  RH  049%=      5-min Rain = 0
KQU1 110647Z 23021G26KT 10/M00 A2947 RMK A01 T01011001  RH  049%=      5-min Rain = 0
KQU1 110648Z 23021G26KT 10/M00 A2947 RMK A01 T01001001  RH  049%=      5-min Rain = 0
KQU1 110649Z 22022G27KT 10/M00 A2947 RMK A01 T01001001  RH  049%=      5-min Rain = 0
KQU1 110650Z 22022G27KT 10/M00 A2947 RMK A01 T01001001  RH  049%=      5-min Rain = 0
KQU1 110651Z 22023KT 10/M00 A2947 RMK A01 T01011001  RH  049%=      5-min Rain = 0
KQU1 110652Z 23021KT 10/M00 A2947 RMK A01 T01011001  RH  049%=      5-min Rain = 0
KQU1 110653Z 22023KT 10/M00 A2947 RMK A01 T01011001  RH  049%=      5-min Rain = 0
KQU1 110654Z 23020G25KT 10/M00 A2947 RMK A01 T01011001  RH  049%=      5-min Rain = 0
KQU1 110655Z 23022G28KT 10/M00 A2947 RMK A01 T01011001  RH  049%=      5-min Rain = 0
KQU1 110656Z 22023G29KT 10/M00 A2947 RMK A01 T01021001  RH  049%=      5-min Rain = 0
KQU1 110657Z 22020G26KT 10/M00 A2948 RMK A01 T01021002  RH  049%=      5-min Rain = 0
KQU1 110658Z 22023KT 10/M00 A2948 RMK A01 T01021002  RH  049%=      5-min Rain = 0
KQU1 110659Z 23026G32KT 10/M00 A2948 RMK A01 T01031002  RH  048%=      5-min Rain = 0
KQU1 110700Z 23027KT 10/M00 A2948 RMK A01 T01041002  RH  048%=      5-min Rain = 0
KQU1 110701Z 22024KT 10/M00 A2948 RMK A01 T01041003  RH  048%=      5-min Rain = 0
KQU1 110702Z 23021G26KT 10/M00 A2948 RMK A01 T01041003  RH  047%=      5-min Rain = 0
KQU1 110703Z 23021G31KT 10/M00 A2948 RMK A01 T01041003  RH  048%=      5-min Rain = 0
KQU1 110704Z 23025G30KT 10/M00 A2948 RMK A01 T01041003  RH  047%=      5-min Rain = 0
KQU1 110705Z 22022KT 10/M00 A2949 RMK A01 T01041003  RH  047%=      5-min Rain = 0
KQU1 110706Z 23022G28KT 11/M00 A2948 RMK A01 T01051003  RH  047%=      5-min Rain = 0
KQU1 110707Z 23020KT 11/M00 A2949 RMK A01 T01051003  RH  047%=      5-min Rain = 0
KQU1 110708Z 23020G25KT 11/M00 A2948 RMK A01 T01051003  RH  047%=      5-min Rain = 0
KQU1 110709Z 23023KT 11/M00 A2948 RMK A01 T01051003  RH  047%=      5-min Rain = 0
KQU1 110710Z 22021KT 11/M00 A2948 RMK A01 T01061003  RH  047%=      5-min Rain = 0
KQU1 110711Z 23023G30KT 11/M00 A2948 RMK A01 T01061003  RH  047%=      5-min Rain = 0
KQU1 110712Z 23027G33KT 11/M00 A2948 RMK A01 T01061004  RH  046%=      5-min Rain = 0
KQU1 110713Z 22023KT 11/M00 A2948 RMK A01 T01071004  RH  046%=      5-min Rain = 0
KQU1 110714Z 22023KT 11/M00 A2948 RMK A01 T01071004  RH  046%=      5-min Rain = 0
KQU1 110715Z 22021KT 11/M00 A2948 RMK A01 T01061004  RH  046%=      5-min Rain = 0
KQU1 110716Z 23023KT 11/M00 A2948 RMK A01 T01061004  RH  046%=      5-min Rain = 0
KQU1 110717Z 23023G31KT 11/M00 A2948 RMK A01 T01071004  RH  046%=      5-min Rain = 0
KQU1 110718Z 22018KT 11/M01 A2948 RMK A01 T01061005  RH  046%=      5-min Rain = 0
KQU1 110719Z 23026G32KT 11/M00 A2948 RMK A01 T01061004  RH  046%=      5-min Rain = 0
KQU1 110720Z 23025KT 11/M01 A2948 RMK A01 T01061005  RH  046%=      5-min Rain = 0
KQU1 110721Z 23020KT 11/M01 A2948 RMK A01 T01061005  RH  046%=      5-min Rain = 0
KQU1 110722Z 23021G27KT 11/M01 A2948 RMK A01 T01061005  RH  046%=      5-min Rain = 0
KQU1 110723Z 23024KT 11/M00 A2948 RMK A01 T01061004  RH  046%=      5-min Rain = 0
KQU1 110724Z 23025G33KT 11/M01 A2948 RMK A01 T01061005  RH  046%=      5-min Rain = 0
KQU1 110725Z 23024G29KT 11/M01 A2948 RMK A01 T01061005  RH  046%=      5-min Rain = 0
KQU1 110726Z 23021KT 11/M01 A2948 RMK A01 T01061005  RH  046%=      5-min Rain = 0
KQU1 110727Z 23021KT 11/M01 A2948 RMK A01 T01051005  RH  046%=      5-min Rain = 0
KQU1 110728Z 23020KT 11/M01 A2948 RMK A01 T01051005  RH  047%=      5-min Rain = 0
KQU1 110729Z 23022KT 10/M01 A2948 RMK A01 T01041005  RH  047%=      5-min Rain = 0
KQU1 110730Z 24026G31KT 11/M01 A2948 RMK A01 T01051005  RH  046%=      5-min Rain = 0
KQU1 110731Z 24025G31KT 11/M01 A2948 RMK A01 T01051006  RH  046%=      5-min Rain = 0
KQU1 110732Z 24024G29KT 11/M01 A2948 RMK A01 T01061006  RH  046%=      5-min Rain = 0
KQU1 110733Z 25027G33KT 11/M01 A2948 RMK A01 T01061007  RH  046%=      5-min Rain = 0
KQU1 110734Z 24024G30KT 11/M01 A2948 RMK A01 T01071007  RH  045%=      5-min Rain = 0
KQU1 110735Z 25022G27KT 11/M01 A2948 RMK A01 T01071006  RH  045%=      5-min Rain = 0
KQU1 110736Z 24017G22KT 11/M01 A2948 RMK A01 T01061007  RH  046%=      5-min Rain = 0
KQU1 110737Z 24020KT 11/M01 A2948 RMK A01 T01061007  RH  046%=      5-min Rain = 0
KQU1 110738Z 25019G27KT 11/M01 A2948 RMK A01 T01061008  RH  045%=      5-min Rain = 0
KQU1 110739Z 25023KT 11/M01 A2948 RMK A01 T01071008  RH  045%=      5-min Rain = 0
KQU1 110740Z 25019KT 11/M01 A2948 RMK A01 T01081008  RH  045%=      5-min Rain = 0
KQU1 110741Z 25020KT 11/M01 A2948 RMK A01 T01081009  RH  044%=      5-min Rain = 0
KQU1 110742Z 25019G24KT 11/M01 A2948 RMK A01 T01071009  RH  044%=      5-min Rain = 0
KQU1 110743Z 24021KT 11/M01 A2948 RMK A01 T01071009  RH  045%=      5-min Rain = 0
KQU1 110744Z 25019G25KT 11/M01 A2948 RMK A01 T01071009  RH  045%=      5-min Rain = 0
KQU1 110745Z 24020G25KT 11/M01 A2948 RMK A01 T01061009  RH  045%=      5-min Rain = 0
KQU1 110746Z 25024G29KT 11/M01 A2948 RMK A01 T01071008  RH  045%=      5-min Rain = 0
KQU1 110747Z 25023KT 11/M01 A2948 RMK A01 T01071009  RH  045%=      5-min Rain = 0
KQU1 110748Z 25022G27KT 11/M01 A2948 RMK A01 T01061009  RH  045%=      5-min Rain = 0
KQU1 110749Z 25020KT 11/M01 A2948 RMK A01 T01061009  RH  045%=      5-min Rain = 0
KQU1 110750Z 24018KT 11/M01 A2948 RMK A01 T01051009  RH  045%=      5-min Rain = 0
KQU1 110751Z 24019G26KT 11/M01 A2948 RMK A01 T01051009  RH  045%=      5-min Rain = 0
KQU1 110752Z 25021KT 11/M01 A2948 RMK A01 T01051009  RH  045%=      5-min Rain = 0
KQU1 110753Z 25020G25KT 11/M01 A2948 RMK A01 T01051009  RH  045%=      5-min Rain = 0
KQU1 110754Z 25018KT 11/M01 A2948 RMK A01 T01051010  RH  045%=      5-min Rain = 0
KQU1 110755Z 25017KT 10/M01 A2948 RMK A01 T01041010  RH  045%=      5-min Rain = 0
KQU1 110756Z 25015G22KT 10/M01 A2948 RMK A01 T01041010  RH  045%=      5-min Rain = 0
KQU1 110757Z 24019KT 10/M01 A2948 RMK A01 T01041010  RH  045%=      5-min Rain = 0
KQU1 110758Z 25021KT 10/M01 A2948 RMK A01 T01041010  RH  045%=      5-min Rain = 0
KQU1 110759Z 25020KT 11/M01 A2948 RMK A01 T01051011  RH  045%=      5-min Rain = 0
KQU1 110800Z 25019KT 11/M01 A2948 RMK A01 T01061011  RH  044%=      5-min Rain = 0
KQU1 110801Z 26019G24KT 11/M01 A2948 RMK A01 T01061011  RH  044%=      5-min Rain = 0
KQU1 110802Z 26018G24KT 11/M01 A2948 RMK A01 T01071011  RH  044%=      5-min Rain = 0
KQU1 110803Z 26019G25KT 11/M01 A2948 RMK A01 T01071012  RH  044%=      5-min Rain = 0
KQU1 110804Z 26020G25KT 11/M01 A2948 RMK A01 T01071011  RH  044%=      5-min Rain = 0
KQU1 110805Z 26019G24KT 11/M01 A2948 RMK A01 T01081012  RH  043%=      5-min Rain = 0
KQU1 110806Z 26020G25KT 11/M01 A2948 RMK A01 T01091012  RH  043%=      5-min Rain = 0
KQU1 110807Z 27020KT 11/M01 A2948 RMK A01 T01101012  RH  043%=      5-min Rain = 0
KQU1 110808Z 27019G24KT 11/M01 A2948 RMK A01 T01111012  RH  042%=      5-min Rain = 0
KQU1 110809Z 27021KT 11/M01 A2948 RMK A01 T01121012  RH  042%=      5-min Rain = 0
KQU1 110810Z 27019G24KT 11/M01 A2948 RMK A01 T01131012  RH  042%=      5-min Rain = 0
KQU1 110811Z 27020G27KT 11/M01 A2948 RMK A01 T01141012  RH  041%=      5-min Rain = 0
KQU1 110812Z 27018KT 12/M01 A2948 RMK A01 T01151012  RH  041%=      5-min Rain = 0
KQU1 110813Z 28018G23KT 12/M01 A2948 RMK A01 T01151012  RH  041%=      5-min Rain = 0
KQU1 110814Z 29018G23KT 11/M01 A2949 RMK A01 T01141012  RH  041%=      5-min Rain = 0
KQU1 110815Z 28016G21KT 11/M01 A2949 RMK A01 T01141012  RH  041%=      5-min Rain = 0
KQU1 110816Z 30016G23KT 11/M01 A2949 RMK A01 T01141012  RH  042%=      5-min Rain = 0
KQU1 110817Z 30018KT 11/M01 A2949 RMK A01 T01141012  RH  042%=      5-min Rain = 0
KQU1 110818Z 30014KT 11/M01 A2949 RMK A01 T01131012  RH  042%=      5-min Rain = 0
KQU1 110819Z 30016KT 11/M01 A2949 RMK A01 T01131012  RH  042%=      5-min Rain = 0
KQU1 110820Z 31016KT 11/M01 A2949 RMK A01 T01131013  RH  042%=      5-min Rain = 0
KQU1 110821Z 31014G19KT 11/M01 A2949 RMK A01 T01141013  RH  041%=      5-min Rain = 0
KQU1 110822Z 32014G19KT 11/M01 A2949 RMK A01 T01141013  RH  041%=      5-min Rain = 0
KQU1 110823Z 32015G21KT 11/M01 A2949 RMK A01 T01141013  RH  041%=      5-min Rain = 0
KQU1 110824Z 32017G22KT 12/M01 A2949 RMK A01 T01151014  RH  041%=      5-min Rain = 0
KQU1 110825Z 31017G24KT 12/M01 A2949 RMK A01 T01151014  RH  041%=      5-min Rain = 0
KQU1 110826Z 32017KT 12/M01 A2949 RMK A01 T01151014  RH  041%=      5-min Rain = 0
KQU1 110827Z 32019G26KT 12/M02 A2949 RMK A01 T01151015  RH  040%=      5-min Rain = 0
KQU1 110828Z 33021G26KT 12/M02 A295 RMK A01 T01161015  RH  040%=      5-min Rain = 0
KQU1 110829Z 33021G31KT 12/M02 A295 RMK A01 T01161016  RH  040%=      5-min Rain = 0
KQU1 110830Z 33026G34KT 12/M02 A295 RMK A01 T01161016  RH  040%=      5-min Rain = 0
KQU1 110831Z 33021KT 12/M02 A295 RMK A01 T01161016  RH  040%=      5-min Rain = 0
KQU1 110832Z 34017G24KT 12/M02 A295 RMK A01 T01161016  RH  040%=      5-min Rain = 0
KQU1 110833Z 34020G26KT 12/M02 A295 RMK A01 T01151015  RH  040%=      5-min Rain = 0
KQU1 110834Z 32022G30KT 12/M02 A2951 RMK A01 T01151017  RH  040%=      5-min Rain = 0
KQU1 110835Z 33019KT 12/M02 A2951 RMK A01 T01151017  RH  040%=      5-min Rain = 0
KQU1 110836Z 34022G29KT 11/M02 A2951 RMK A01 T01141016  RH  040%=      5-min Rain = 0
KQU1 110837Z 32022G27KT 11/M02 A2951 RMK A01 T01141017  RH  040%=      5-min Rain = 0
KQU1 110838Z 33017G28KT 11/M02 A2952 RMK A01 T01131017  RH  040%=      5-min Rain = 0
KQU1 110839Z 33013G26KT 11/M02 A2952 RMK A01 T01131016  RH  041%=      5-min Rain = 0
KQU1 110840Z 32020G29KT 11/M02 A2952 RMK A01 T01121016  RH  041%=      5-min Rain = 0
KQU1 110841Z 34018G24KT 11/M02 A2952 RMK A01 T01121016  RH  041%=      5-min Rain = 0
KQU1 110842Z 35016G24KT 11/M01 A2952 RMK A01 T01121014  RH  042%=      5-min Rain = 0
KQU1 110843Z 35018G25KT 11/M01 A2952 RMK A01 T01111012  RH  042%=      5-min Rain = 0
KQU1 110844Z 34023G30KT 11/M01 A2952 RMK A01 T01101011  RH  043%=      5-min Rain = 0
KQU1 110845Z 35024G29KT 11/M01 A2952 RMK A01 T01101009  RH  044%=      5-min Rain = 0
KQU1 110846Z 34024G30KT 11/M01 A2952 RMK A01 T01101009  RH  044%=      5-min Rain = 0
KQU1 110847Z 35023KT 11/M01 A2953 RMK A01 T01091008  RH  044%=      5-min Rain = 0
KQU1 110848Z 34019G26KT 11/M01 A2953 RMK A01 T01091006  RH  045%=      5-min Rain = 0
KQU1 110849Z 35017G26KT 11/M01 A2953 RMK A01 T01081005  RH  046%=      5-min Rain = 0
KQU1 110850Z 35021G29KT 11/M00 A2953 RMK A01 T01081002  RH  047%=      5-min Rain = 0
KQU1 110851Z 35023G30KT 11/M00 A2953 RMK A01 T01071001  RH  047%=      5-min Rain = 0
KQU1 110852Z 34017G22KT 11/M00 A2953 RMK A01 T01071001  RH  047%=      5-min Rain = 0
KQU1 110853Z 34020G28KT 11/00 A2953 RMK A01 T01070001  RH  048%=      5-min Rain = 0
KQU1 110854Z 34018G29KT 11/00 A2953 RMK A01 T01070003  RH  048%=      5-min Rain = 0
KQU1 110855Z 35019G27KT 11/00 A2953 RMK A01 T01070003  RH  049%=      5-min Rain = 0
KQU1 110856Z 35023G32KT 11/01 A2953 RMK A01 T01070005  RH  049%=      5-min Rain = 0
KQU1 110857Z 34018G23KT 11/01 A2953 RMK A01 T01070006  RH  050%=      5-min Rain = 0
KQU1 110858Z 35021G26KT 11/01 A2954 RMK A01 T01070006  RH  050%=      5-min Rain = 0
KQU1 110859Z 34020G27KT 11/01 A2954 RMK A01 T01070007  RH  050%=      5-min Rain = 0
KQU1 110900Z 34020KT 11/01 A2954 RMK A01 T01070008  RH  050%=      5-min Rain = 0
KQU1 110901Z 33019G27KT 11/01 A2954 RMK A01 T01070008  RH  051%=      5-min Rain = 0
KQU1 110902Z 33019G29KT 11/01 A2954 RMK A01 T01070009  RH  051%=      5-min Rain = 0
KQU1 110903Z 35021G30KT 11/01 A2954 RMK A01 T01070010  RH  051%=      5-min Rain = 0
KQU1 110904Z 35018G27KT 11/01 A2954 RMK A01 T01070011  RH  051%=      5-min Rain = 0
KQU1 110905Z 35019G29KT 11/01 A2954 RMK A01 T01070012  RH  052%=      5-min Rain = 0
KQU1 110906Z 34020G26KT 11/01 A2954 RMK A01 T01070013  RH  052%=      5-min Rain = 0
KQU1 110907Z 34018G28KT 11/02 A2954 RMK A01 T01070015  RH  053%=      5-min Rain = 0
KQU1 110908Z 34020G28KT 11/02 A2955 RMK A01 T01070017  RH  054%=      5-min Rain = 0
KQU1 110909Z 34021G27KT 11/02 A2954 RMK A01 T01070019  RH  054%=      5-min Rain = 0
KQU1 110910Z 33025G37KT 11/02 A2955 RMK A01 T01070020  RH  055%=      5-min Rain = 0
KQU1 110911Z 34024G31KT 11/02 A2955 RMK A01 T01080022  RH  055%=      5-min Rain = 0
KQU1 110912Z 35022G27KT 11/02 A2955 RMK A01 T01080022  RH  056%=      5-min Rain = 0
KQU1 110913Z 34025G34KT 11/02 A2956 RMK A01 T01080023  RH  056%=      5-min Rain = 0
KQU1 110914Z 34019G28KT 11/02 A2956 RMK A01 T01080024  RH  056%=      5-min Rain = 0
KQU1 110915Z 34020G27KT 11/03 A2956 RMK A01 T01080025  RH  057%=      5-min Rain = 0
KQU1 110916Z 34014G22KT 11/03 A2956 RMK A01 T01080026  RH  057%=      5-min Rain = 0
KQU1 110917Z 33017G23KT 11/03 A2956 RMK A01 T01070027  RH  058%=      5-min Rain = 0
KQU1 110918Z 34015G21KT 11/03 A2956 RMK A01 T01070028  RH  058%=      5-min Rain = 0
KQU1 110919Z 35016G27KT 11/03 A2956 RMK A01 T01070029  RH  058%=      5-min Rain = 0
KQU1 110920Z 33013KT 11/03 A2956 RMK A01 T01070029  RH  058%=      5-min Rain = 0
KQU1 110921Z 33017G23KT 11/03 A2957 RMK A01 T01070030  RH  059%=      5-min Rain = 0
KQU1 110922Z 34011KT 11/03 A2957 RMK A01 T01080031  RH  059%=      5-min Rain = 0
KQU1 110923Z 35011KT 11/03 A2957 RMK A01 T01070031  RH  059%=      5-min Rain = 0
KQU1 110924Z 35012KT 11/03 A2957 RMK A01 T01070032  RH  060%=      5-min Rain = 0
KQU1 110925Z 34015KT 11/03 A2957 RMK A01 T01070033  RH  060%=      5-min Rain = 0
KQU1 110926Z 33013KT 11/03 A2958 RMK A01 T01070033  RH  060%=      5-min Rain = 0
KQU1 110927Z 34015KT 11/03 A2958 RMK A01 T01070034  RH  060%=      5-min Rain = 0
KQU1 110928Z 34022G29KT 11/04 A2958 RMK A01 T01060035  RH  061%=      5-min Rain = 0
KQU1 110929Z 34018G26KT 11/04 A2958 RMK A01 T01050036  RH  062%=      5-min Rain = 0
KQU1 110930Z 35018G26KT 10/04 A2958 RMK A01 T01040036  RH  063%=      5-min Rain = 0
KQU1 110931Z 36022G30KT 10/04 A2958 RMK A01 T01030036  RH  063%=      5-min Rain = 0
KQU1 110932Z 34017G28KT 10/04 A2959 RMK A01 T01020036  RH  063%=      5-min Rain = 0
KQU1 110933Z 35015G20KT 10/04 A2959 RMK A01 T01010036  RH  064%=      5-min Rain = 0
KQU1 110934Z 33021G31KT 10/04 A2959 RMK A01 T01000036  RH  064%=      5-min Rain = 0
KQU1 110935Z 32022KT 10/04 A2959 RMK A01 T00990035  RH  064%=      5-min Rain = 0
KQU1 110936Z 34017G24KT 10/04 A2959 RMK A01 T00990035  RH  064%=      5-min Rain = 0
KQU1 110937Z 35020G26KT 10/04 A2959 RMK A01 T00980035  RH  065%=      5-min Rain = 0
KQU1 110938Z 35022G30KT 10/03 A2959 RMK A01 T00970034  RH  065%=      5-min Rain = 0
KQU1 110939Z 35022G28KT 10/03 A2959 RMK A01 T00960034  RH  065%=      5-min Rain = 0
KQU1 110940Z 35018G25KT 10/03 A2959 RMK A01 T00960034  RH  065%=      5-min Rain = 0
KQU1 110941Z 34016G23KT 10/03 A296 RMK A01 T00950034  RH  066%=      5-min Rain = 0
KQU1 110942Z 33019G26KT 10/03 A296 RMK A01 T00950033  RH  066%=      5-min Rain = 0
KQU1 110943Z 34021G27KT 09/03 A296 RMK A01 T00940033  RH  066%=      5-min Rain = 0
KQU1 110944Z 35029G39KT 09/03 A296 RMK A01 T00930031  RH  066%=      5-min Rain = 0
KQU1 110945Z 35025G32KT 09/03 A296 RMK A01 T00910031  RH  066%=      5-min Rain = 0
KQU1 110946Z 34023G28KT 09/03 A296 RMK A01 T00910031  RH  066%=      5-min Rain = 0
KQU1 110947Z 33020G31KT 09/03 A2961 RMK A01 T00900031  RH  066%=      5-min Rain = 0
KQU1 110948Z 33022G31KT 09/03 A2961 RMK A01 T00890029  RH  066%=      5-min Rain = 0
KQU1 110949Z 35018KT 09/03 A2961 RMK A01 T00880029  RH  067%=      5-min Rain = 0
KQU1 110950Z 32019G26KT 09/03 A2961 RMK A01 T00870028  RH  066%=      5-min Rain = 0
KQU1 110951Z 34015KT 09/03 A2961 RMK A01 T00860028  RH  067%=      5-min Rain = 0
KQU1 110952Z 33018G25KT 09/03 A2962 RMK A01 T00850027  RH  067%=      5-min Rain = 0
KQU1 110953Z 33019G25KT 09/03 A2961 RMK A01 T00850026  RH  067%=      5-min Rain = 0
KQU1 110954Z 33020G30KT 08/03 A2962 RMK A01 T00840026  RH  067%=      5-min Rain = 0
KQU1 110955Z 34020G26KT 08/03 A2962 RMK A01 T00840025  RH  067%=      5-min Rain = 0
KQU1 110956Z 34020G32KT 08/03 A2962 RMK A01 T00830025  RH  067%=      5-min Rain = 0
KQU1 110957Z 34020G27KT 08/02 A2962 RMK A01 T00830024  RH  066%=      5-min Rain = 0
KQU1 110958Z 34016KT 08/02 A2962 RMK A01 T00820024  RH  067%=      5-min Rain = 0
KQU1 110959Z 35016KT 08/02 A2963 RMK A01 T00820024  RH  067%=      5-min Rain = 0
KQU1 111000Z 33018G27KT 08/02 A2963 RMK A01 T00820023  RH  066%=      5-min Rain = 0
KQU1 111001Z 33014KT 08/02 A2963 RMK A01 T00810023  RH  066%=      5-min Rain = 0
KQU1 111002Z 33014KT 08/02 A2963 RMK A01 T00810022  RH  066%=      5-min Rain = 0
KQU1 111003Z 33016G25KT 08/02 A2963 RMK A01 T00810021  RH  066%=      5-min Rain = 0
KQU1 111004Z 34021G28KT 08/02 A2963 RMK A01 T00800020  RH  066%=      5-min Rain = 0
KQU1 111005Z 33022G31KT 08/02 A2963 RMK A01 T00800019  RH  066%=      5-min Rain = 0
KQU1 111006Z 34016KT 08/02 A2964 RMK A01 T00790019  RH  066%=      5-min Rain = 0
KQU1 111007Z 36018G25KT 08/02 A2964 RMK A01 T00780018  RH  066%=      5-min Rain = 0
KQU1 111008Z 34018G26KT 08/02 A2964 RMK A01 T00770017  RH  066%=      5-min Rain = 0
KQU1 111009Z 33018G23KT 08/02 A2964 RMK A01 T00770016  RH  066%=      5-min Rain = 0
KQU1 111010Z 35020G25KT 08/02 A2964 RMK A01 T00760016  RH  066%=      5-min Rain = 0
KQU1 111011Z 35025G36KT 08/02 A2964 RMK A01 T00750015  RH  066%=      5-min Rain = 0
KQU1 111012Z 36025G32KT 07/01 A2965 RMK A01 T00740013  RH  065%=      5-min Rain = 0
KQU1 111013Z 35029G40KT 07/01 A2964 RMK A01 T00730011  RH  065%=      5-min Rain = 0
KQU1 111014Z 33028G37KT 07/01 A2964 RMK A01 T00720009  RH  064%=      5-min Rain = 0
KQU1 111015Z 35027G34KT 07/01 A2965 RMK A01 T00700008  RH  065%=      5-min Rain = 0
KQU1 111016Z 34022G27KT 07/01 A2965 RMK A01 T00690007  RH  065%=      5-min Rain = 0
KQU1 111017Z 34020G26KT 07/01 A2965 RMK A01 T00680007  RH  065%=      5-min Rain = 0
KQU1 111018Z 34021G27KT 07/01 A2965 RMK A01 T00680007  RH  065%=      5-min Rain = 0
KQU1 111019Z 34024G30KT 07/01 A2965 RMK A01 T00670007  RH  065%=      5-min Rain = 0
KQU1 111020Z 35021G29KT 07/01 A2965 RMK A01 T00660007  RH  066%=      5-min Rain = 0
KQU1 111021Z 34023G33KT 07/01 A2966 RMK A01 T00660006  RH  066%=      5-min Rain = 0
KQU1 111022Z 34019G27KT 07/01 A2965 RMK A01 T00650007  RH  066%=      5-min Rain = 0
KQU1 111023Z 34015KT 07/01 A2965 RMK A01 T00650007  RH  066%=      5-min Rain = 0
KQU1 111024Z 35019G26KT 07/01 A2965 RMK A01 T00650007  RH  066%=      5-min Rain = 0
KQU1 111025Z 36016G25KT 06/01 A2965 RMK A01 T00640007  RH  067%=      5-min Rain = 0
KQU1 111026Z 36018G25KT 06/01 A2965 RMK A01 T00640007  RH  067%=      5-min Rain = 0
KQU1 111027Z 35019G26KT 06/01 A2966 RMK A01 T00640007  RH  067%=      5-min Rain = 0
KQU1 111028Z 34021G31KT 06/01 A2966 RMK A01 T00640008  RH  067%=      5-min Rain = 0
KQU1 111029Z 36023G30KT 06/01 A2966 RMK A01 T00640008  RH  067%=      5-min Rain = 0
KQU1 111030Z 35017G24KT 06/01 A2966 RMK A01 T00640008  RH  067%=      5-min Rain = 0
KQU1 111031Z 35018G24KT 06/01 A2967 RMK A01 T00640008  RH  067%=      5-min Rain = 0
KQU1 111032Z 35016G22KT 06/01 A2967 RMK A01 T00640008  RH  067%=      5-min Rain = 0
KQU1 111033Z 33014G23KT 06/01 A2967 RMK A01 T00640008  RH  067%=      5-min Rain = 0
KQU1 111034Z 32021KT 06/01 A2967 RMK A01 T00630006  RH  067%=      5-min Rain = 0
KQU1 111035Z 34020G27KT 06/01 A2967 RMK A01 T00620005  RH  067%=      5-min Rain = 0
KQU1 111036Z 35022G27KT 06/01 A2967 RMK A01 T00610005  RH  067%=      5-min Rain = 0
KQU1 111037Z 35019G25KT 06/00 A2967 RMK A01 T00600004  RH  068%=      5-min Rain = 0
KQU1 111038Z 34018G25KT 06/00 A2967 RMK A01 T00590004  RH  068%=      5-min Rain = 0
KQU1 111039Z 34022G32KT 06/00 A2968 RMK A01 T00580002  RH  068%=      5-min Rain = 0
KQU1 111040Z 34020G26KT 06/00 A2968 RMK A01 T00560000  RH  067%=      5-min Rain = 0
KQU1 111041Z 34017G28KT 05/M00 A2968 RMK A01 T00541001  RH  068%=      5-min Rain = 0
KQU1 111042Z 34024G31KT 05/M00 A2968 RMK A01 T00531002  RH  068%=      5-min Rain = 0
KQU1 111043Z 34015G20KT 05/M00 A2968 RMK A01 T00521002  RH  068%=      5-min Rain = 0
KQU1 111044Z 35019G26KT 05/M00 A2968 RMK A01 T00511003  RH  068%=      5-min Rain = 0
KQU1 111045Z 35020G30KT 05/M00 A2968 RMK A01 T00501003  RH  068%=      5-min Rain = 0
KQU1 111046Z 35024G31KT 05/M01 A2968 RMK A01 T00491005  RH  068%=      5-min Rain = 0
KQU1 111047Z 35023G30KT 05/M01 A2969 RMK A01 T00481005  RH  068%=      5-min Rain = 0
KQU1 111048Z 35021G31KT 05/M01 A2968 RMK A01 T00471006  RH  069%=      5-min Rain = 0
KQU1 111049Z 35019G25KT 05/M01 A2969 RMK A01 T00471007  RH  068%=      5-min Rain = 0
KQU1 111050Z 34020G25KT 05/M01 A2969 RMK A01 T00461007  RH  068%=      5-min Rain = 0
KQU1 111051Z 34020G25KT 05/M01 A2969 RMK A01 T00451011  RH  067%=      5-min Rain = 0
KQU1 111052Z 34025G34KT 04/M02 A2969 RMK A01 T00431015  RH  066%=      5-min Rain = 0
KQU1 111053Z 35023G32KT 04/M02 A2969 RMK A01 T00411016  RH  066%=      5-min Rain = 0
KQU1 111054Z 34020G34KT 04/M02 A2969 RMK A01 T00401017  RH  067%=      5-min Rain = 0
KQU1 111055Z 35027G37KT 04/M02 A2969 RMK A01 T00391018  RH  067%=      5-min Rain = 0
KQU1 111056Z 35021G31KT 04/M02 A2969 RMK A01 T00381018  RH  067%=      5-min Rain = 0
KQU1 111057Z 35025G37KT 04/M02 A2969 RMK A01 T00371019  RH  067%=      5-min Rain = 0
KQU1 111058Z 34023G33KT 04/M02 A297 RMK A01 T00371018  RH  067%=      5-min Rain = 0
KQU1 111059Z 35027G36KT 04/M02 A2969 RMK A01 T00371018  RH  067%=      5-min Rain = 0
KQU1 111100Z 35021G34KT 04/M02 A297 RMK A01 T00361019  RH  067%=      5-min Rain = 0
KQU1 111101Z 34023G29KT 04/M02 A297 RMK A01 T00361019  RH  067%=      5-min Rain = 0
KQU1 111102Z 34024G31KT 04/M02 A2971 RMK A01 T00361019  RH  067%=      5-min Rain = 0
KQU1 111103Z 35017G24KT 04/M02 A2971 RMK A01 T00351019  RH  068%=      5-min Rain = 0
KQU1 111104Z 35017G24KT 04/M02 A2971 RMK A01 T00351019  RH  068%=      5-min Rain = 0
KQU1 111105Z 35016G22KT 04/M02 A2971 RMK A01 T00351019  RH  068%=      5-min Rain = 0
KQU1 111106Z 33017G22KT 04/M02 A2972 RMK A01 T00351019  RH  068%=      5-min Rain = 0
KQU1 111107Z 33014G19KT 04/M02 A2972 RMK A01 T00351019  RH  068%=      5-min Rain = 0
KQU1 111108Z 34021G29KT 04/M02 A2972 RMK A01 T00351018  RH  068%=      5-min Rain = 0
KQU1 111109Z 35022G31KT 04/M02 A2972 RMK A01 T00351018  RH  069%=      5-min Rain = 0
KQU1 111110Z 35020KT 04/M02 A2972 RMK A01 T00351017  RH  069%=      5-min Rain = 0
KQU1 111111Z 35017G24KT 04/M02 A2972 RMK A01 T00351017  RH  069%=      5-min Rain = 0
KQU1 111112Z 34019G27KT 04/M02 A2973 RMK A01 T00351017  RH  069%=      5-min Rain = 0
KQU1 111113Z 35020G30KT 03/M02 A2973 RMK A01 T00341017  RH  069%=      5-min Rain = 0
KQU1 111114Z 34016G23KT 03/M02 A2973 RMK A01 T00341017  RH  069%=      5-min Rain = 0
KQU1 111115Z 34018G25KT 03/M02 A2973 RMK A01 T00341018  RH  069%=      5-min Rain = 0
KQU1 111116Z 34014G21KT 03/M02 A2974 RMK A01 T00341017  RH  069%=      5-min Rain = 0
KQU1 111117Z 34018G26KT 03/M02 A2974 RMK A01 T00341017  RH  069%=      5-min Rain = 0
KQU1 111118Z 35019G30KT 03/M02 A2974 RMK A01 T00331017  RH  069%=      5-min Rain = 0
KQU1 111119Z 35020G28KT 03/M02 A2974 RMK A01 T00331017  RH  070%=      5-min Rain = 0
KQU1 111120Z 33021G27KT 03/M02 A2974 RMK A01 T00321018  RH  070%=      5-min Rain = 0
KQU1 111121Z 35014G20KT 03/M02 A2974 RMK A01 T00321017  RH  070%=      5-min Rain = 0
KQU1 111122Z 35015G22KT 03/M02 A2974 RMK A01 T00321018  RH  070%=      5-min Rain = 0
KQU1 111123Z 35019G24KT 03/M02 A2974 RMK A01 T00321018  RH  070%=      5-min Rain = 0
KQU1 111124Z 35022G29KT 03/M02 A2974 RMK A01 T00311017  RH  070%=      5-min Rain = 0
KQU1 111125Z 35020G27KT 03/M02 A2974 RMK A01 T00311017  RH  071%=      5-min Rain = 0
KQU1 111126Z 35017G24KT 03/M02 A2975 RMK A01 T00311017  RH  071%=      5-min Rain = 0
KQU1 111127Z 34020G25KT 03/M02 A2974 RMK A01 T00311017  RH  071%=      5-min Rain = 0
KQU1 111128Z 35018G26KT 03/M02 A2974 RMK A01 T00311017  RH  071%=      5-min Rain = 0
KQU1 111129Z 34020G26KT 03/M02 A2975 RMK A01 T00311017  RH  071%=      5-min Rain = 0
KQU1 111130Z 34018G26KT 03/M02 A2975 RMK A01 T00311017  RH  071%=      5-min Rain = 0
KQU1 111131Z 35018G23KT 03/M02 A2975 RMK A01 T00311016  RH  071%=      5-min Rain = 0
KQU1 111132Z 35021G29KT 03/M02 A2975 RMK A01 T00311016  RH  071%=      5-min Rain = 0
KQU1 111133Z 35019G25KT 03/M02 A2975 RMK A01 T00311015  RH  072%=      5-min Rain = 0
KQU1 111134Z 35018G23KT 03/M01 A2975 RMK A01 T00321014  RH  072%=      5-min Rain = 0
KQU1 111135Z 34015KT 03/M01 A2975 RMK A01 T00321014  RH  072%=      5-min Rain = 0
KQU1 111136Z 35017G24KT 03/M02 A2976 RMK A01 T00321015  RH  071%=      5-min Rain = 0
KQU1 111137Z 35017G25KT 03/M01 A2975 RMK A01 T00321014  RH  072%=      5-min Rain = 0
KQU1 111138Z 35023G34KT 03/M02 A2976 RMK A01 T00321015  RH  072%=      5-min Rain = 0
KQU1 111139Z 35022G35KT 03/M02 A2976 RMK A01 T00321015  RH  072%=      5-min Rain = 0
KQU1 111140Z 35022G27KT 03/M02 A2976 RMK A01 T00321015  RH  072%=      5-min Rain = 0
KQU1 111141Z 35029G35KT 03/M02 A2976 RMK A01 T00311016  RH  071%=      5-min Rain = 0
KQU1 111142Z 35021G28KT 03/M02 A2976 RMK A01 T00301018  RH  071%=      5-min Rain = 0
KQU1 111143Z 35021G28KT 03/M02 A2976 RMK A01 T00291018  RH  071%=      5-min Rain = 0
KQU1 111144Z 35022G32KT 03/M02 A2977 RMK A01 T00281019  RH  071%=      5-min Rain = 0
KQU1 111145Z 34025G32KT 03/M02 A2977 RMK A01 T00271019  RH  072%=      5-min Rain = 0
KQU1 111146Z 34021G28KT 03/M02 A2977 RMK A01 T00261020  RH  072%=      5-min Rain = 0
KQU1 111147Z 35023G31KT 03/M02 A2977 RMK A01 T00251020  RH  072%=      5-min Rain = 0
KQU1 111148Z 35020G29KT 02/M02 A2977 RMK A01 T00241021  RH  072%=      5-min Rain = 0
KQU1 111149Z 34020G33KT 02/M02 A2977 RMK A01 T00231021  RH  073%=      5-min Rain = 0
KQU1 111150Z 33017G23KT 02/M02 A2978 RMK A01 T00221021  RH  073%=      5-min Rain = 0
KQU1 111151Z 34017G23KT 02/M02 A2978 RMK A01 T00221022  RH  073%=      5-min Rain = 0
KQU1 111152Z 34022G33KT 02/M02 A2978 RMK A01 T00221023  RH  072%=      5-min Rain = 0
KQU1 111153Z 35025G32KT 02/M03 A2978 RMK A01 T00201025  RH  072%=      5-min Rain = 0
KQU1 111154Z 35019G25KT 02/M03 A2978 RMK A01 T00191025  RH  073%=      5-min Rain = 0
KQU1 111155Z 34018G24KT 02/M03 A2978 RMK A01 T00191025  RH  073%=      5-min Rain = 0
KQU1 111156Z 34020G26KT 02/M03 A2978 RMK A01 T00181026  RH  073%=      5-min Rain = 0
KQU1 111157Z 34022G33KT 02/M03 A2978 RMK A01 T00171027  RH  072%=      5-min Rain = 0
KQU1 111158Z 34022G32KT 02/M03 A2978 RMK A01 T00161028  RH  072%=      5-min Rain = 0
KQU1 111159Z 34027G34KT 02/M03 A2978 RMK A01 T00161028  RH  073%=      5-min Rain = 0
KQU1 111200Z 35022G28KT 02/M03 A2978 RMK A01 T00151028  RH  073%=      5-min Rain = 0
KQU1 111201Z 34025G33KT 02/M03 A2978 RMK A01 T00151029  RH  072%=      5-min Rain = 0
KQU1 111202Z 34019G29KT 02/M03 A2978 RMK A01 T00151029  RH  072%=      5-min Rain = 0
KQU1 111203Z 34022G39KT 02/M03 A2978 RMK A01 T00151030  RH  072%=      5-min Rain = 0
KQU1 111204Z 34023G32KT 02/M03 A2979 RMK A01 T00151031  RH  072%=      5-min Rain = 0
KQU1 111205Z 35026G32KT 01/M03 A2978 RMK A01 T00141031  RH  072%=      5-min Rain = 0
KQU1 111206Z 34033G43KT 01/M03 A2978 RMK A01 T00141032  RH  071%=      5-min Rain = 0
KQU1 111207Z 35020G33KT 01/M03 A2978 RMK A01 T00141031  RH  072%=      5-min Rain = 0
KQU1 111208Z 35028G34KT 01/M03 A2978 RMK A01 T00141031  RH  072%=      5-min Rain = 0
KQU1 111209Z 36021G26KT 01/M03 A2978 RMK A01 T00141031  RH  072%=      5-min Rain = 0
KQU1 111210Z 35021G27KT 01/M03 A2978 RMK A01 T00141032  RH  071%=      5-min Rain = 0
KQU1 111211Z 34023G28KT 01/M03 A2978 RMK A01 T00141032  RH  071%=      5-min Rain = 0
KQU1 111212Z 35021G28KT 01/M03 A2978 RMK A01 T00141032  RH  071%=      5-min Rain = 0
KQU1 111213Z 34022G29KT 01/M03 A2978 RMK A01 T00141032  RH  071%=      5-min Rain = 0
KQU1 111214Z 35021G30KT 01/M03 A2978 RMK A01 T00141032  RH  071%=      5-min Rain = 0
KQU1 111215Z 35021G27KT 01/M03 A2978 RMK A01 T00141031  RH  072%=      5-min Rain = 0
KQU1 111216Z 34019KT 02/M03 A2978 RMK A01 T00151032  RH  071%=      5-min Rain = 0
KQU1 111217Z 35021G34KT 02/M03 A2978 RMK A01 T00151031  RH  072%=      5-min Rain = 0
KQU1 111218Z 34027G38KT 02/M03 A2979 RMK A01 T00151030  RH  072%=      5-min Rain = 0
KQU1 111219Z 34020KT 02/M03 A2979 RMK A01 T00161031  RH  071%=      5-min Rain = 0
KQU1 111220Z 35018G25KT 02/M03 A2979 RMK A01 T00161031  RH  071%=      5-min Rain = 0
KQU1 111221Z 35019G26KT 02/M03 A2979 RMK A01 T00161030  RH  071%=      5-min Rain = 0
KQU1 111222Z 35028G34KT 02/M03 A2979 RMK A01 T00171029  RH  072%=      5-min Rain = 0
KQU1 111223Z 35018G24KT 02/M03 A2979 RMK A01 T00171029  RH  071%=      5-min Rain = 0
KQU1 111224Z 34022KT 02/M03 A2979 RMK A01 T00181029  RH  071%=      5-min Rain = 0
KQU1 111225Z 35021G27KT 02/M03 A2979 RMK A01 T00181029  RH  071%=      5-min Rain = 0
KQU1 111226Z 35016KT 02/M03 A298 RMK A01 T00181029  RH  071%=      5-min Rain = 0
KQU1 111227Z 35015G25KT 02/M03 A298 RMK A01 T00181028  RH  071%=      5-min Rain = 0
KQU1 111228Z 34024G32KT 02/M03 A298 RMK A01 T00191029  RH  071%=      5-min Rain = 0
KQU1 111229Z 34022G27KT 02/M03 A298 RMK A01 T00191029  RH  070%=      5-min Rain = 0
KQU1 111230Z 33020G26KT 02/M03 A298 RMK A01 T00191029  RH  071%=      5-min Rain = 0
KQU1 111231Z 35023G29KT 02/M03 A298 RMK A01 T00191029  RH  071%=      5-min Rain = 0
KQU1 111232Z 34025G36KT 02/M03 A2981 RMK A01 T00181030  RH  070%=      5-min Rain = 0
KQU1 111233Z 34022G31KT 02/M03 A2981 RMK A01 T00181030  RH  070%=      5-min Rain = 0
KQU1 111234Z 36019G25KT 02/M03 A2981 RMK A01 T00181030  RH  071%=      5-min Rain = 0
KQU1 111235Z 35022G37KT 02/M03 A2981 RMK A01 T00171030  RH  071%=      5-min Rain = 0
KQU1 111236Z 36026G34KT 02/M03 A2981 RMK A01 T00171031  RH  071%=      5-min Rain = 0
KQU1 111237Z 35024G32KT 02/M03 A2981 RMK A01 T00161031  RH  071%=      5-min Rain = 0
KQU1 111238Z 35023G32KT 02/M03 A2981 RMK A01 T00151032  RH  071%=      5-min Rain = 0
KQU1 111239Z 36019G25KT 02/M03 A2982 RMK A01 T00151032  RH  071%=      5-min Rain = 0
KQU1 111240Z 35019KT 01/M03 A2982 RMK A01 T00141032  RH  071%=      5-min Rain = 0
KQU1 111241Z 35020G26KT 01/M03 A2982 RMK A01 T00141032  RH  071%=      5-min Rain = 0
KQU1 111242Z 35020G27KT 01/M03 A2982 RMK A01 T00141032  RH  072%=      5-min Rain = 0
KQU1 111243Z 34020G27KT 01/M03 A2982 RMK A01 T00131033  RH  071%=      5-min Rain = 0
KQU1 111244Z 36018G23KT 01/M03 A2982 RMK A01 T00131032  RH  072%=      5-min Rain = 0
KQU1 111245Z 33018G23KT 01/M03 A2982 RMK A01 T00131033  RH  072%=      5-min Rain = 0
KQU1 111246Z 34017G24KT 01/M03 A2982 RMK A01 T00131032  RH  072%=      5-min Rain = 0
KQU1 111247Z 35015KT 01/M03 A2983 RMK A01 T00131032  RH  072%=      5-min Rain = 0
KQU1 111248Z 36015G21KT 01/M03 A2983 RMK A01 T00131033  RH  072%=      5-min Rain = 0
KQU1 111249Z 34021G28KT 01/M03 A2982 RMK A01 T00131032  RH  072%=      5-min Rain = 0
KQU1 111250Z 34018G28KT 01/M03 A2983 RMK A01 T00141032  RH  072%=      5-min Rain = 0
KQU1 111251Z 35018KT 01/M03 A2983 RMK A01 T00141032  RH  072%=      5-min Rain = 0
KQU1 111252Z 34019G26KT 01/M03 A2983 RMK A01 T00141033  RH  071%=      5-min Rain = 0
KQU1 111253Z 34017G23KT 01/M03 A2984 RMK A01 T00131033  RH  071%=      5-min Rain = 0
KQU1 111254Z 34016G26KT 01/M03 A2984 RMK A01 T00131033  RH  071%=      5-min Rain = 0
KQU1 111255Z 35022G29KT 01/M04 A2984 RMK A01 T00131035  RH  071%=      5-min Rain = 0
KQU1 111256Z 35023G29KT 01/M04 A2984 RMK A01 T00131035  RH  070%=      5-min Rain = 0
KQU1 111257Z 34021G27KT 01/M04 A2984 RMK A01 T00131035  RH  070%=      5-min Rain = 0
KQU1 111258Z 35023G34KT 01/M04 A2985 RMK A01 T00131035  RH  070%=      5-min Rain = 0
KQU1 111259Z 34022G29KT 01/M04 A2984 RMK A01 T00121036  RH  070%=      5-min Rain = 0
KQU1 111300Z 35022G28KT 01/M04 A2985 RMK A01 T00121036  RH  070%=      5-min Rain = 0
KQU1 111301Z 34026G31KT 01/M04 A2985 RMK A01 T00121037  RH  070%=      5-min Rain = 0
KQU1 111302Z 33022G27KT 01/M04 A2985 RMK A01 T00111037  RH  070%=      5-min Rain = 0
KQU1 111303Z 35021G29KT 01/M04 A2985 RMK A01 T00111037  RH  070%=      5-min Rain = 0
KQU1 111304Z 34026G32KT 01/M04 A2985 RMK A01 T00101039  RH  069%=      5-min Rain = 0
KQU1 111305Z 34021G31KT 01/M04 A2985 RMK A01 T00101039  RH  070%=      5-min Rain = 0
KQU1 111306Z 35022G31KT 01/M04 A2985 RMK A01 T00091040  RH  070%=      5-min Rain = 0
KQU1 111307Z 34020G29KT 01/M04 A2985 RMK A01 T00091040  RH  070%=      5-min Rain = 0
KQU1 111308Z 35024G36KT 01/M04 A2985 RMK A01 T00081042  RH  069%=      5-min Rain = 0
KQU1 111309Z 34020KT 01/M04 A2986 RMK A01 T00071042  RH  070%=      5-min Rain = 0
KQU1 111310Z 34025G31KT 01/M04 A2986 RMK A01 T00071043  RH  070%=      5-min Rain = 0
KQU1 111311Z 34020G41KT 01/M04 A2986 RMK A01 T00061043  RH  070%=      5-min Rain = 0
KQU1 111312Z 35028G41KT 01/M04 A2985 RMK A01 T00051044  RH  069%=      5-min Rain = 0
KQU1 111313Z 35026G33KT 01/M04 A2986 RMK A01 T00051044  RH  070%=      5-min Rain = 0
KQU1 111314Z 35027G37KT 00/M05 A2986 RMK A01 T00041046  RH  069%=      5-min Rain = 0
KQU1 111315Z 35028G41KT 00/M05 A2986 RMK A01 T00031047  RH  069%=      5-min Rain = 0
KQU1 111316Z 35029G38KT 00/M05 A2986 RMK A01 T00021047  RH  070%=      5-min Rain = 0
KQU1 111317Z 34026G36KT 00/M05 A2986 RMK A01 T00021047  RH  069%=      5-min Rain = 0
KQU1 111318Z 35028G33KT 00/M05 A2986 RMK A01 T00011047  RH  070%=      5-min Rain = 0
KQU1 111319Z 34025G31KT 00/M05 A2987 RMK A01 T00011048  RH  070%=      5-min Rain = 0
KQU1 111320Z 34021G28KT 00/M05 A2987 RMK A01 T00011047  RH  070%=      5-min Rain = 0
KQU1 111321Z 34017G24KT 00/M05 A2987 RMK A01 T00011047  RH  070%=      5-min Rain = 0
KQU1 111322Z 34020G32KT 00/M05 A2987 RMK A01 T00011048  RH  070%=      5-min Rain = 0
KQU1 111323Z 34017G26KT 00/M05 A2987 RMK A01 T00011047  RH  070%=      5-min Rain = 0
KQU1 111324Z 35019G25KT 00/M05 A2987 RMK A01 T00011047  RH  070%=      5-min Rain = 0
KQU1 111325Z 34016G26KT 00/M05 A2987 RMK A01 T00011047  RH  070%=      5-min Rain = 0
KQU1 111326Z 33019KT 00/M05 A2987 RMK A01 T00011048  RH  070%=      5-min Rain = 0
KQU1 111327Z 33014KT 00/05 A2988 RMK A01 T00000-48  RH  070%=      5-min Rain = 0
KQU1 111328Z 34019G25KT 00/05 A2988 RMK A01 T00000-49  RH  069%=      5-min Rain = 0
KQU1 111329Z 33025G37KT 00/05 A2988 RMK A01 T00-00-50  RH  069%=      5-min Rain = 0
KQU1 111330Z 35019KT M00/M05 A2988 RMK A01 T10011050  RH  069%=      5-min Rain = 0
KQU1 111331Z 34022G27KT M00/M05 A2988 RMK A01 T10011049  RH  070%=      5-min Rain = 0
KQU1 111332Z 34021G29KT M00/M05 A2988 RMK A01 T10011049  RH  070%=      5-min Rain = 0
KQU1 111333Z 34026G31KT M00/M05 A2988 RMK A01 T10011050  RH  070%=      5-min Rain = 0
KQU1 111334Z 35022G27KT M00/M05 A2988 RMK A01 T10011049  RH  070%=      5-min Rain = 0
KQU1 111335Z 35023G29KT M00/M05 A2988 RMK A01 T10011050  RH  070%=      5-min Rain = 0
KQU1 111336Z 33023G28KT M00/M05 A2988 RMK A01 T10011051  RH  069%=      5-min Rain = 0
KQU1 111337Z 34018G24KT M00/M05 A2989 RMK A01 T10021051  RH  069%=      5-min Rain = 0
KQU1 111338Z 35021G28KT M00/M05 A2989 RMK A01 T10021050  RH  070%=      5-min Rain = 0
KQU1 111339Z 34020G36KT M00/M05 A2989 RMK A01 T10021050  RH  070%=      5-min Rain = 0
KQU1 111340Z 35026G35KT M00/M05 A2989 RMK A01 T10021051  RH  070%=      5-min Rain = 0
KQU1 111341Z 34029G39KT M00/M05 A2989 RMK A01 T10021051  RH  069%=      5-min Rain = 0
KQU1 111342Z 35024G33KT M00/M05 A299 RMK A01 T10021051  RH  070%=      5-min Rain = 0
KQU1 111343Z 34022G30KT M00/M05 A299 RMK A01 T10021051  RH  069%=      5-min Rain = 0
KQU1 111344Z 34024G31KT M00/M05 A299 RMK A01 T10021052  RH  069%=      5-min Rain = 0
KQU1 111345Z 34020G25KT M00/M05 A299 RMK A01 T10021052  RH  069%=      5-min Rain = 0
KQU1 111346Z 35020G29KT M00/M05 A299 RMK A01 T10031052  RH  069%=      5-min Rain = 0
KQU1 111347Z 35022G31KT M00/M05 A299 RMK A01 T10031052  RH  069%=      5-min Rain = 0
KQU1 111348Z 35023G32KT M00/M05 A299 RMK A01 T10031052  RH  070%=      5-min Rain = 0
KQU1 111349Z 35021G31KT M00/M05 A299 RMK A01 T10031052  RH  070%=      5-min Rain = 0
KQU1 111350Z 34023G28KT M00/M05 A299 RMK A01 T10031051  RH  070%=      5-min Rain = 0
KQU1 111351Z 34021G27KT M00/M05 A2991 RMK A01 T10031053  RH  069%=      5-min Rain = 0
KQU1 111352Z 35020G25KT M00/M05 A299 RMK A01 T10031052  RH  070%=      5-min Rain = 0
KQU1 111353Z 34020G29KT M00/M05 A2991 RMK A01 T10031051  RH  070%=      5-min Rain = 0
KQU1 111354Z 34016G21KT M00/M05 A2991 RMK A01 T10031052  RH  070%=      5-min Rain = 0
KQU1 111355Z 34019G26KT M00/M05 A2991 RMK A01 T10031052  RH  070%=      5-min Rain = 0
KQU1 111356Z 35023G30KT M00/M05 A2991 RMK A01 T10041052  RH  070%=      5-min Rain = 0
KQU1 111357Z 35023G28KT M00/M05 A2991 RMK A01 T10041051  RH  070%=      5-min Rain = 0
KQU1 111358Z 35019G29KT M00/M05 A2991 RMK A01 T10031051  RH  070%=      5-min Rain = 0
KQU1 111359Z 34018G23KT M00/M05 A2991 RMK A01 T10031051  RH  070%=      5-min Rain = 0
KQU1 111400Z 35022G30KT M00/M05 A2991 RMK A01 T10031051  RH  070%=      5-min Rain = 0
KQU1 111401Z 34021G26KT M00/M05 A2991 RMK A01 T10031051  RH  070%=      5-min Rain = 0
KQU1 111402Z 34020G26KT M00/M05 A2991 RMK A01 T10031052  RH  070%=      5-min Rain = 0
KQU1 111403Z 35021G31KT M00/M05 A2992 RMK A01 T10031051  RH  070%=      5-min Rain = 0
KQU1 111404Z 34026G35KT M00/M05 A2991 RMK A01 T10031052  RH  069%=      5-min Rain = 0
KQU1 111405Z 34024G30KT M00/M05 A2992 RMK A01 T10031054  RH  069%=      5-min Rain = 0
KQU1 111406Z 35019G26KT M00/M05 A2992 RMK A01 T10041053  RH  069%=      5-min Rain = 0
KQU1 111407Z 35020G30KT M00/M05 A2992 RMK A01 T10041054  RH  069%=      5-min Rain = 0
KQU1 111408Z 35020G27KT M00/M05 A2992 RMK A01 T10041054  RH  069%=      5-min Rain = 0
KQU1 111409Z 34019G24KT M00/M06 A2992 RMK A01 T10041055  RH  069%=      5-min Rain = 0
KQU1 111410Z 35020G28KT M00/M06 A2992 RMK A01 T10041056  RH  068%=      5-min Rain = 0
KQU1 111411Z 34020G30KT M01/M06 A2992 RMK A01 T10051057  RH  068%=      5-min Rain = 0
KQU1 111412Z 34016G23KT M01/M06 A2992 RMK A01 T10051057  RH  068%=      5-min Rain = 0
KQU1 111413Z 33021G27KT M01/M06 A2992 RMK A01 T10051059  RH  067%=      5-min Rain = 0
KQU1 111414Z 35017G22KT M01/M06 A2992 RMK A01 T10061058  RH  068%=      5-min Rain = 0
KQU1 111415Z 34025G30KT M01/M06 A2992 RMK A01 T10061060  RH  067%=      5-min Rain = 0
KQU1 111416Z 35021G27KT M01/M06 A2993 RMK A01 T10061060  RH  067%=      5-min Rain = 0
KQU1 111417Z 34023G29KT M01/M06 A2993 RMK A01 T10071061  RH  067%=      5-min Rain = 0
KQU1 111418Z 34021G29KT M01/M06 A2993 RMK A01 T10071061  RH  067%=      5-min Rain = 0
KQU1 111419Z 35022G30KT M01/M06 A2993 RMK A01 T10071061  RH  067%=      5-min Rain = 0
KQU1 111420Z 34027G34KT M01/M06 A2993 RMK A01 T10071062  RH  066%=      5-min Rain = 0
KQU1 111421Z 35021G28KT M01/M06 A2993 RMK A01 T10071061  RH  067%=      5-min Rain = 0
KQU1 111422Z 00019G24KT M01/M06 A2993 RMK A01 T10071061  RH  067%=      5-min Rain = 0
KQU1 111423Z 34018G24KT M01/M06 A2993 RMK A01 T10071061  RH  067%=      5-min Rain = 0
KQU1 111424Z 34024G31KT M01/M06 A2993 RMK A01 T10071063  RH  066%=      5-min Rain = 0
KQU1 111425Z 35020G27KT M01/M06 A2993 RMK A01 T10081063  RH  066%=      5-min Rain = 0
KQU1 111426Z 35019KT M01/M06 A2994 RMK A01 T10081062  RH  067%=      5-min Rain = 0
KQU1 111427Z 34015G23KT M01/M06 A2994 RMK A01 T10081062  RH  066%=      5-min Rain = 0
KQU1 111428Z 34017G23KT M01/M06 A2994 RMK A01 T10071062  RH  066%=      5-min Rain = 0
KQU1 111429Z 35019G28KT M01/M06 A2994 RMK A01 T10081063  RH  066%=      5-min Rain = 0
KQU1 111430Z 00016G28KT M01/M06 A2994 RMK A01 T10071063  RH  066%=      5-min Rain = 0
KQU1 111431Z 35017G23KT M01/M06 A2994 RMK A01 T10071063  RH  066%=      5-min Rain = 0
KQU1 111432Z 35022G29KT M01/M06 A2994 RMK A01 T10071063  RH  066%=      5-min Rain = 0
KQU1 111433Z 35019KT M01/M06 A2994 RMK A01 T10071063  RH  066%=      5-min Rain = 0
KQU1 111434Z 34017G25KT M01/M06 A2994 RMK A01 T10071063  RH  066%=      5-min Rain = 0
KQU1 111435Z 35020G26KT M01/M06 A2994 RMK A01 T10071064  RH  065%=      5-min Rain = 0
KQU1 111436Z 36018G26KT M01/M06 A2994 RMK A01 T10071063  RH  066%=      5-min Rain = 0
KQU1 111437Z 35019G24KT M01/M06 A2994 RMK A01 T10071064  RH  065%=      5-min Rain = 0
KQU1 111438Z 35019G25KT M01/M06 A2994 RMK A01 T10061064  RH  065%=      5-min Rain = 0
KQU1 111439Z 35018G28KT M01/M06 A2995 RMK A01 T10061063  RH  065%=      5-min Rain = 0
KQU1 111440Z 34017KT M01/M06 A2995 RMK A01 T10061063  RH  065%=      5-min Rain = 0
KQU1 111441Z 34016G23KT M01/M06 A2995 RMK A01 T10061064  RH  065%=      5-min Rain = 0
KQU1 111442Z 34014G20KT M01/M06 A2995 RMK A01 T10061063  RH  065%=      5-min Rain = 0
KQU1 111443Z 35020G26KT M01/M07 A2995 RMK A01 T10061065  RH  064%=      5-min Rain = 0
KQU1 111444Z 35017G23KT M01/M07 A2995 RMK A01 T10061065  RH  064%=      5-min Rain = 0
KQU1 111445Z 34020G26KT M01/M07 A2995 RMK A01 T10061065  RH  064%=      5-min Rain = 0
KQU1 111446Z 36019G26KT M01/M07 A2995 RMK A01 T10061065  RH  064%=      5-min Rain = 0
KQU1 111447Z 36019G26KT M01/M06 A2995 RMK A01 T10061064  RH  064%=      5-min Rain = 0
KQU1 111448Z 35017G27KT M01/M07 A2995 RMK A01 T10061065  RH  064%=      5-min Rain = 0
KQU1 111449Z 35022G31KT M01/M07 A2996 RMK A01 T10051065  RH  064%=      5-min Rain = 0
KQU1 111450Z 35021G28KT M01/M07 A2996 RMK A01 T10061066  RH  064%=      5-min Rain = 0
KQU1 111451Z 35020G28KT M01/M07 A2996 RMK A01 T10061066  RH  064%=      5-min Rain = 0
KQU1 111452Z 35014G20KT M01/M07 A2996 RMK A01 T10061066  RH  064%=      5-min Rain = 0
KQU1 111453Z 35017G25KT M01/M07 A2996 RMK A01 T10051065  RH  064%=      5-min Rain = 0
KQU1 111454Z 36018G25KT M01/M07 A2996 RMK A01 T10051066  RH  063%=      5-min Rain = 0
KQU1 111455Z 00016G28KT M01/M07 A2996 RMK A01 T10051066  RH  063%=      5-min Rain = 0
KQU1 111456Z 35019G24KT M01/M07 A2996 RMK A01 T10051066  RH  063%=      5-min Rain = 0
KQU1 111457Z 35025G37KT M01/M07 A2997 RMK A01 T10051068  RH  063%=      5-min Rain = 0
KQU1 111458Z 35024G31KT M01/M07 A2997 RMK A01 T10061068  RH  063%=      5-min Rain = 0
KQU1 111459Z 35020G27KT M01/M07 A2997 RMK A01 T10061069  RH  062%=      5-min Rain = 0
KQU1 111500Z 35023G31KT M01/M07 A2997 RMK A01 T10061069  RH  062%=      5-min Rain = 0
KQU1 111501Z 35022G32KT M01/M07 A2997 RMK A01 T10061069  RH  062%=      5-min Rain = 0
KQU1 111502Z 34026G31KT M01/M07 A2997 RMK A01 T10061072  RH  061%=      5-min Rain = 0
KQU1 111503Z 34025G36KT M01/M07 A2997 RMK A01 T10061072  RH  061%=      5-min Rain = 0
KQU1 111504Z 35024G33KT M01/M07 A2997 RMK A01 T10061071  RH  061%=      5-min Rain = 0
KQU1 111505Z 34023G29KT M01/M07 A2997 RMK A01 T10061073  RH  061%=      5-min Rain = 0
KQU1 111506Z 35026G35KT M01/M07 A2998 RMK A01 T10061072  RH  061%=      5-min Rain = 0
KQU1 111507Z 35024G30KT M01/M07 A2998 RMK A01 T10061073  RH  061%=      5-min Rain = 0
KQU1 111508Z 35027G35KT M01/M07 A2998 RMK A01 T10061073  RH  060%=      5-min Rain = 0
KQU1 111509Z 35021G31KT M01/M07 A2998 RMK A01 T10061072  RH  061%=      5-min Rain = 0
KQU1 111510Z 35018G26KT M01/M07 A2998 RMK A01 T10051072  RH  060%=      5-min Rain = 0
KQU1 111511Z 35019G27KT M01/M07 A2998 RMK A01 T10051073  RH  060%=      5-min Rain = 0
KQU1 111512Z 35022G30KT M01/M07 A2998 RMK A01 T10051073  RH  060%=      5-min Rain = 0
KQU1 111513Z 35020G28KT M01/M07 A2998 RMK A01 T10061074  RH  060%=      5-min Rain = 0
KQU1 111514Z 35013G26KT M01/M07 A2998 RMK A01 T10061072  RH  061%=      5-min Rain = 0
KQU1 111515Z 35020G28KT M01/M07 A2998 RMK A01 T10061074  RH  060%=      5-min Rain = 0
KQU1 111516Z 35022G30KT M01/M07 A2998 RMK A01 T10061073  RH  060%=      5-min Rain = 0
KQU1 111517Z 35020G27KT M01/M07 A2999 RMK A01 T10061072  RH  061%=      5-min Rain = 0
KQU1 111518Z 35019G28KT M01/M07 A2999 RMK A01 T10061072  RH  061%=      5-min Rain = 0
KQU1 111519Z 36021G28KT M01/M07 A2999 RMK A01 T10061072  RH  061%=      5-min Rain = 0
KQU1 111520Z 34024G31KT M01/M07 A2999 RMK A01 T10061073  RH  061%=      5-min Rain = 0
KQU1 111521Z 34023G31KT M01/M07 A2999 RMK A01 T10061073  RH  061%=      5-min Rain = 0
KQU1 111522Z 35021G28KT M01/M07 A2999 RMK A01 T10061072  RH  061%=      5-min Rain = 0
KQU1 111523Z 34022G29KT M01/M07 A2999 RMK A01 T10061073  RH  060%=      5-min Rain = 0
KQU1 111524Z 34024G33KT M01/M07 A2999 RMK A01 T10061073  RH  061%=      5-min Rain = 0
KQU1 111525Z 35025G32KT M01/M07 A2999 RMK A01 T10051073  RH  060%=      5-min Rain = 0
KQU1 111526Z 35022G32KT M00/M07 A2999 RMK A01 T10041072  RH  060%=      5-min Rain = 0
KQU1 111527Z 35024G32KT M00/M07 A30 RMK A01 T10041072  RH  060%=      5-min Rain = 0
KQU1 111528Z 35021G30KT M00/M07 A2999 RMK A01 T10031072  RH  059%=      5-min Rain = 0
KQU1 111529Z 00023G36KT M00/M07 A30 RMK A01 T10031073  RH  059%=      5-min Rain = 0
KQU1 111530Z 35025G31KT M00/M07 A30 RMK A01 T10031073  RH  059%=      5-min Rain = 0
KQU1 111531Z 34023G29KT M00/M08 A30 RMK A01 T10031075  RH  058%=      5-min Rain = 0
KQU1 111532Z 34022G35KT M00/M07 A30 RMK A01 T10031073  RH  059%=      5-min Rain = 0
KQU1 111533Z 35019G27KT M00/M07 A30 RMK A01 T10031073  RH  059%=      5-min Rain = 0
KQU1 111534Z 34020G27KT M00/M07 A30 RMK A01 T10031073  RH  059%=      5-min Rain = 0
KQU1 111535Z 35021G27KT M00/M07 A30 RMK A01 T10031074  RH  059%=      5-min Rain = 0
KQU1 111536Z 35020G28KT M00/M07 A3001 RMK A01 T10021074  RH  059%=      5-min Rain = 0
KQU1 111537Z 34021G26KT M00/M07 A3001 RMK A01 T10021074  RH  059%=      5-min Rain = 0
KQU1 111538Z 35023G34KT M00/M07 A3001 RMK A01 T10021074  RH  058%=      5-min Rain = 0
KQU1 111539Z 35020G25KT M00/M07 A3001 RMK A01 T10021074  RH  058%=      5-min Rain = 0
KQU1 111540Z 34020G26KT M00/M07 A3001 RMK A01 T10011073  RH  059%=      5-min Rain = 0
KQU1 111541Z 35022G28KT M00/M07 A3001 RMK A01 T10011074  RH  058%=      5-min Rain = 0
KQU1 111542Z 35021G30KT M00/M07 A3002 RMK A01 T10011073  RH  059%=      5-min Rain = 0
KQU1 111543Z 35023G29KT M00/M07 A3002 RMK A01 T10011074  RH  058%=      5-min Rain = 0
KQU1 111544Z 34024G31KT M00/M08 A3002 RMK A01 T10011075  RH  058%=      5-min Rain = 0
KQU1 111545Z 34025G32KT M00/M08 A3002 RMK A01 T10011075  RH  057%=      5-min Rain = 0
KQU1 111546Z 34022G33KT M00/M08 A3002 RMK A01 T10011075  RH  057%=      5-min Rain = 0
KQU1 111547Z 35021G30KT M00/M08 A3002 RMK A01 T10011075  RH  057%=      5-min Rain = 0
KQU1 111548Z 33021KT 00/08 A3002 RMK A01 T00-00-75  RH  057%=      5-min Rain = 0
KQU1 111549Z 34021G37KT 00/08 A3003 RMK A01 T00000-76  RH  057%=      5-min Rain = 0
KQU1 111550Z 34028G35KT 00/08 A3003 RMK A01 T00000-76  RH  057%=      5-min Rain = 0
KQU1 111551Z 34025G31KT 00/08 A3003 RMK A01 T00000-76  RH  056%=      5-min Rain = 0
KQU1 111552Z 34023KT 00/08 A3003 RMK A01 T00000-75  RH  057%=      5-min Rain = 0
KQU1 111553Z 34022G29KT 00/08 A3003 RMK A01 T00000-75  RH  057%=      5-min Rain = 0
KQU1 111554Z 34020G27KT 00/M08 A3003 RMK A01 T00011075  RH  057%=      5-min Rain = 0
KQU1 111555Z 35020G27KT 00/M07 A3003 RMK A01 T00021074  RH  057%=      5-min Rain = 0
KQU1 111556Z 34020KT 00/M07 A3004 RMK A01 T00021074  RH  057%=      5-min Rain = 0
KQU1 111557Z 34015G22KT 00/M07 A3004 RMK A01 T00031074  RH  056%=      5-min Rain = 0
KQU1 111558Z 34024G32KT 00/M08 A3004 RMK A01 T00031075  RH  055%=      5-min Rain = 0
KQU1 111559Z 36021G30KT 00/M08 A3004 RMK A01 T00041075  RH  056%=      5-min Rain = 0
KQU1 111600Z 35020G25KT 01/M07 A3004 RMK A01 T00051073  RH  056%=      5-min Rain = 0
KQU1 111601Z 34026G34KT 01/M08 A3004 RMK A01 T00061075  RH  055%=      5-min Rain = 0
KQU1 111602Z 34023G31KT 01/M08 A3004 RMK A01 T00061078  RH  054%=      5-min Rain = 0
KQU1 111603Z 36021G28KT 01/M08 A3004 RMK A01 T00061077  RH  054%=      5-min Rain = 0
KQU1 111604Z 35021G28KT 01/M08 A3004 RMK A01 T00061077  RH  054%=      5-min Rain = 0
KQU1 111605Z 34025KT 01/M08 A3004 RMK A01 T00061078  RH  053%=      5-min Rain = 0
KQU1 111606Z 35019G27KT 01/M08 A3004 RMK A01 T00061078  RH  054%=      5-min Rain = 0
KQU1 111607Z 34020G27KT 01/M08 A3005 RMK A01 T00061078  RH  053%=      5-min Rain = 0
KQU1 111608Z 34022G29KT 01/M08 A3005 RMK A01 T00051079  RH  053%=      5-min Rain = 0
KQU1 111609Z 34021G27KT 01/M08 A3005 RMK A01 T00051080  RH  053%=      5-min Rain = 0
KQU1 111610Z 35022G30KT 01/M08 A3005 RMK A01 T00061080  RH  053%=      5-min Rain = 0
KQU1 111611Z 35025G34KT 01/M08 A3005 RMK A01 T00061081  RH  052%=      5-min Rain = 0
KQU1 111612Z 35019G25KT 01/M08 A3006 RMK A01 T00061079  RH  053%=      5-min Rain = 0
KQU1 111613Z 34018G26KT 01/M08 A3006 RMK A01 T00061078  RH  053%=      5-min Rain = 0
KQU1 111614Z 35015G22KT 01/M08 A3006 RMK A01 T00071079  RH  053%=      5-min Rain = 0
KQU1 111615Z 35013G22KT 01/M08 A3006 RMK A01 T00081078  RH  053%=      5-min Rain = 0
KQU1 111616Z 34020G25KT 01/M08 A3006 RMK A01 T00081080  RH  052%=      5-min Rain = 0
KQU1 111617Z 34025KT 01/M08 A3007 RMK A01 T00071081  RH  052%=      5-min Rain = 0
KQU1 111618Z 34023KT 01/M08 A3007 RMK A01 T00071081  RH  052%=      5-min Rain = 0
KQU1 111619Z 35022G30KT 01/M08 A3007 RMK A01 T00071080  RH  052%=      5-min Rain = 0
KQU1 111620Z 34018G23KT 01/M08 A3007 RMK A01 T00071080  RH  052%=      5-min Rain = 0
KQU1 111621Z 35021G30KT 01/M08 A3007 RMK A01 T00071080  RH  052%=      5-min Rain = 0
KQU1 111622Z 35020G26KT 01/M08 A3007 RMK A01 T00071081  RH  052%=      5-min Rain = 0
KQU1 111623Z 35024G32KT 01/M08 A3007 RMK A01 T00061080  RH  053%=      5-min Rain = 0
KQU1 111624Z 34019G24KT 01/M08 A3007 RMK A01 T00061080  RH  052%=      5-min Rain = 0
KQU1 111625Z 35020G27KT 01/M08 A3007 RMK A01 T00061079  RH  053%=      5-min Rain = 0
KQU1 111626Z 35020G28KT 01/M08 A3008 RMK A01 T00061080  RH  053%=      5-min Rain = 0
KQU1 111627Z 34019G24KT 01/M08 A3008 RMK A01 T00061081  RH  052%=      5-min Rain = 0
KQU1 111628Z 34020G27KT 01/M08 A3008 RMK A01 T00051081  RH  052%=      5-min Rain = 0
KQU1 111629Z 35020G29KT 01/M08 A3008 RMK A01 T00061080  RH  053%=      5-min Rain = 0
KQU1 111630Z 34018G24KT 01/M08 A3008 RMK A01 T00051081  RH  052%=      5-min Rain = 0
KQU1 111631Z 34020G27KT 01/M08 A3008 RMK A01 T00051082  RH  052%=      5-min Rain = 0
KQU1 111632Z 35024G29KT 01/M08 A3008 RMK A01 T00051083  RH  052%=      5-min Rain = 0
KQU1 111633Z 35023G31KT 01/M08 A3008 RMK A01 T00051082  RH  052%=      5-min Rain = 0
KQU1 111634Z 36020G27KT 01/M08 A3008 RMK A01 T00061082  RH  052%=      5-min Rain = 0
KQU1 111635Z 35021G26KT 01/M08 A3008 RMK A01 T00081082  RH  051%=      5-min Rain = 0
KQU1 111636Z 34020G26KT 01/M08 A3008 RMK A01 T00091083  RH  050%=      5-min Rain = 0
KQU1 111637Z 35024G32KT 01/M08 A3008 RMK A01 T00101083  RH  050%=      5-min Rain = 0
KQU1 111638Z 35020G29KT 01/M08 A3008 RMK A01 T00101084  RH  050%=      5-min Rain = 0
KQU1 111639Z 35022G28KT 01/M08 A3009 RMK A01 T00101083  RH  050%=      5-min Rain = 0
KQU1 111640Z 35018G24KT 01/M08 A3008 RMK A01 T00111083  RH  050%=      5-min Rain = 0
KQU1 111641Z 35017G24KT 01/M08 A3009 RMK A01 T00121083  RH  049%=      5-min Rain = 0
KQU1 111642Z 35014G22KT 01/M08 A3008 RMK A01 T00131080  RH  050%=      5-min Rain = 0
KQU1 111643Z 34018G24KT 01/M08 A3009 RMK A01 T00141082  RH  049%=      5-min Rain = 0
KQU1 111644Z 35020G31KT 01/M08 A3009 RMK A01 T00141083  RH  048%=      5-min Rain = 0
KQU1 111645Z 34019KT 01/M09 A3009 RMK A01 T00131085  RH  048%=      5-min Rain = 0
KQU1 111646Z 34022G28KT 01/M08 A3009 RMK A01 T00131084  RH  048%=      5-min Rain = 0
KQU1 111647Z 34020G32KT 01/M08 A3009 RMK A01 T00131083  RH  049%=      5-min Rain = 0
KQU1 111648Z 35024G32KT 01/M09 A3009 RMK A01 T00121086  RH  048%=      5-min Rain = 0
KQU1 111649Z 35027G34KT 01/M09 A3009 RMK A01 T00111086  RH  048%=      5-min Rain = 0
KQU1 111650Z 34021G28KT 01/M09 A3009 RMK A01 T00101088  RH  048%=      5-min Rain = 0
KQU1 111651Z 35021G30KT 01/M09 A3009 RMK A01 T00111085  RH  049%=      5-min Rain = 0
KQU1 111652Z 35021G27KT 01/M09 A3009 RMK A01 T00111086  RH  049%=      5-min Rain = 0
KQU1 111653Z 34020G27KT 01/M09 A3009 RMK A01 T00111086  RH  048%=      5-min Rain = 0
KQU1 111654Z 34021G28KT 01/M09 A3009 RMK A01 T00111087  RH  048%=      5-min Rain = 0
KQU1 111655Z 34018KT 01/M09 A3009 RMK A01 T00111085  RH  049%=      5-min Rain = 0
KQU1 111656Z 35019KT 01/M09 A3009 RMK A01 T00121087  RH  048%=      5-min Rain = 0
KQU1 111657Z 35018G23KT 01/M09 A3009 RMK A01 T00121086  RH  048%=      5-min Rain = 0
KQU1 111658Z 34017G23KT 01/M09 A301 RMK A01 T00131086  RH  048%=      5-min Rain = 0
KQU1 111659Z 35020G31KT 01/M09 A301 RMK A01 T00131088  RH  047%=      5-min Rain = 0
KQU1 111700Z 34023G28KT 01/M09 A301 RMK A01 T00121089  RH  047%=      5-min Rain = 0
KQU1 111701Z 35024G31KT 01/M09 A301 RMK A01 T00121087  RH  047%=      5-min Rain = 0
KQU1 111702Z 35020G25KT 01/M09 A301 RMK A01 T00131085  RH  048%=      5-min Rain = 0
KQU1 111703Z 35015KT 01/M08 A301 RMK A01 T00141084  RH  048%=      5-min Rain = 0
KQU1 111704Z 35020G27KT 01/M09 A301 RMK A01 T00141086  RH  047%=      5-min Rain = 0
KQU1 111705Z 35018G26KT 01/M09 A301 RMK A01 T00141087  RH  047%=      5-min Rain = 0
KQU1 111706Z 36023G33KT 02/M09 A301 RMK A01 T00151087  RH  047%=      5-min Rain = 0
KQU1 111707Z 36022G27KT 02/M09 A301 RMK A01 T00151087  RH  047%=      5-min Rain = 0
KQU1 111708Z 35017G23KT 02/M09 A301 RMK A01 T00161085  RH  047%=      5-min Rain = 0
KQU1 111709Z 34018G26KT 02/M08 A301 RMK A01 T00171084  RH  047%=      5-min Rain = 0
KQU1 111710Z 35020G28KT 02/M09 A301 RMK A01 T00171087  RH  046%=      5-min Rain = 0
KQU1 111711Z 35024G30KT 02/M09 A301 RMK A01 T00161088  RH  046%=      5-min Rain = 0
KQU1 111712Z 35021G31KT 02/M09 A301 RMK A01 T00161086  RH  047%=      5-min Rain = 0
KQU1 111713Z 35017KT 02/M09 A301 RMK A01 T00161087  RH  046%=      5-min Rain = 0
KQU1 111714Z 35014G21KT 02/M09 A301 RMK A01 T00171085  RH  047%=      5-min Rain = 0
KQU1 111715Z 35017G23KT 02/M09 A301 RMK A01 T00171086  RH  046%=      5-min Rain = 0
KQU1 111716Z 35017G25KT 02/M09 A301 RMK A01 T00171086  RH  046%=      5-min Rain = 0
KQU1 111717Z 35019G25KT 02/M09 A301 RMK A01 T00181085  RH  046%=      5-min Rain = 0
KQU1 111718Z 35020G27KT 02/M09 A301 RMK A01 T00191086  RH  046%=      5-min Rain = 0
KQU1 111719Z 34020G25KT 02/M09 A301 RMK A01 T00191087  RH  045%=      5-min Rain = 0
KQU1 111720Z 35019G27KT 02/M09 A301 RMK A01 T00201086  RH  045%=      5-min Rain = 0
KQU1 111721Z 35017G23KT 02/M09 A301 RMK A01 T00211085  RH  045%=      5-min Rain = 0
KQU1 111722Z 34016G23KT 02/M09 A301 RMK A01 T00231085  RH  045%=      5-min Rain = 0
KQU1 111723Z 34019G28KT 03/M08 A301 RMK A01 T00261084  RH  044%=      5-min Rain = 0
KQU1 111724Z 34021G28KT 03/M09 A301 RMK A01 T00271086  RH  043%=      5-min Rain = 0
KQU1 111725Z 34022G28KT 03/M09 A301 RMK A01 T00281088  RH  042%=      5-min Rain = 0
KQU1 111726Z 34018KT 03/M09 A301 RMK A01 T00281087  RH  042%=      5-min Rain = 0
KQU1 111727Z 35019G26KT 03/M08 A301 RMK A01 T00301084  RH  043%=      5-min Rain = 0
KQU1 111728Z 35020G29KT 03/M09 A301 RMK A01 T00321088  RH  041%=      5-min Rain = 0
KQU1 111729Z 35025G35KT 03/M09 A301 RMK A01 T00321092  RH  040%=      5-min Rain = 0
KQU1 111730Z 35024G32KT 03/M09 A301 RMK A01 T00311092  RH  040%=      5-min Rain = 0
KQU1 111731Z 35021G27KT 03/M09 A301 RMK A01 T00311091  RH  040%=      5-min Rain = 0
KQU1 111732Z 35019G24KT 03/M09 A301 RMK A01 T00331089  RH  040%=      5-min Rain = 0
KQU1 111733Z 36016G22KT 03/M09 A301 RMK A01 T00341088  RH  040%=      5-min Rain = 0
KQU1 111734Z 36015G21KT 04/M09 A301 RMK A01 T00361089  RH  040%=      5-min Rain = 0
KQU1 111735Z 35014G20KT 04/M09 A301 RMK A01 T00371089  RH  039%=      5-min Rain = 0
KQU1 111736Z 35016G23KT 04/M09 A301 RMK A01 T00381091  RH  038%=      5-min Rain = 0
KQU1 111737Z 34013KT 04/M09 A301 RMK A01 T00381089  RH  039%=      5-min Rain = 0
KQU1 111738Z 35013G21KT 04/M09 A301 RMK A01 T00401087  RH  039%=      5-min Rain = 0
KQU1 111739Z 35017G23KT 04/M09 A3011 RMK A01 T00411088  RH  039%=      5-min Rain = 0
KQU1 111740Z 35019G25KT 04/M09 A3011 RMK A01 T00401089  RH  038%=      5-min Rain = 0
KQU1 111741Z 36018G23KT 04/M09 A3011 RMK A01 T00401089  RH  038%=      5-min Rain = 0
KQU1 111742Z 34020G27KT 04/M09 A3011 RMK A01 T00391091  RH  038%=      5-min Rain = 0
KQU1 111743Z 35023G33KT 04/M10 A3011 RMK A01 T00371095  RH  037%=      5-min Rain = 0
KQU1 111744Z 35021G35KT 03/M09 A3012 RMK A01 T00341094  RH  039%=      5-min Rain = 0
KQU1 111745Z 34019G26KT 03/M09 A3011 RMK A01 T00321094  RH  039%=      5-min Rain = 0
KQU1 111746Z 35019G26KT 03/M10 A3011 RMK A01 T00301096  RH  039%=      5-min Rain = 0
KQU1 111747Z 34020G30KT 03/M09 A3011 RMK A01 T00291094  RH  040%=      5-min Rain = 0
KQU1 111748Z 34023KT 03/M10 A3012 RMK A01 T00281096  RH  040%=      5-min Rain = 0
KQU1 111749Z 34024G30KT 03/M10 A3011 RMK A01 T00271097  RH  040%=      5-min Rain = 0
KQU1 111750Z 34025G31KT 03/M10 A3011 RMK A01 T00251098  RH  040%=      5-min Rain = 0
KQU1 111751Z 34029KT 02/M10 A3012 RMK A01 T00231099  RH  040%=      5-min Rain = 0
KQU1 111752Z 34023G28KT 02/M10 A3012 RMK A01 T00231098  RH  041%=      5-min Rain = 0
KQU1 111753Z 34021G27KT 02/M10 A3012 RMK A01 T00221097  RH  041%=      5-min Rain = 0
KQU1 111754Z 33021G27KT 02/M10 A3012 RMK A01 T00221096  RH  041%=      5-min Rain = 0
KQU1 111755Z 34020G28KT 02/M10 A3012 RMK A01 T00221097  RH  041%=      5-min Rain = 0
KQU1 111756Z 34024G29KT 02/M10 A3012 RMK A01 T00211098  RH  041%=      5-min Rain = 0
KQU1 111757Z 34022G29KT 02/M10 A3012 RMK A01 T00201097  RH  042%=      5-min Rain = 0
KQU1 111758Z 34025G33KT 02/M10 A3012 RMK A01 T00201095  RH  042%=      5-min Rain = 0
KQU1 111759Z 34022G27KT 02/M10 A3012 RMK A01 T00201095  RH  042%=      5-min Rain = 0
KQU1 111800Z 34016G21KT 02/M09 A3012 RMK A01 T00211094  RH  042%=      5-min Rain = 0
KQU1 111801Z 35017G24KT 02/M09 A3012 RMK A01 T00221093  RH  042%=      5-min Rain = 0
KQU1 111802Z 34020G26KT 02/M10 A3013 RMK A01 T00231095  RH  041%=      5-min Rain = 0
KQU1 111803Z 34019G25KT 02/M10 A3013 RMK A01 T00221096  RH  041%=      5-min Rain = 0
KQU1 111804Z 34022G31KT 02/M10 A3013 RMK A01 T00221095  RH  042%=      5-min Rain = 0
KQU1 111805Z 34020G30KT 02/M09 A3013 RMK A01 T00231094  RH  042%=      5-min Rain = 0
KQU1 111806Z 34025KT 02/M10 A3013 RMK A01 T00231096  RH  041%=      5-min Rain = 0
KQU1 111807Z 34020G26KT 02/M10 A3013 RMK A01 T00221095  RH  042%=      5-min Rain = 0
KQU1 111808Z 34020G27KT 02/M10 A3013 RMK A01 T00231095  RH  042%=      5-min Rain = 0
KQU1 111809Z 34021G28KT 02/M10 A3013 RMK A01 T00221097  RH  041%=      5-min Rain = 0
KQU1 111810Z 35022KT 02/M10 A3013 RMK A01 T00211097  RH  041%=      5-min Rain = 0
KQU1 111811Z 35022G29KT 02/M09 A3013 RMK A01 T00221094  RH  042%=      5-min Rain = 0
KQU1 111812Z 35023G32KT 02/M10 A3013 RMK A01 T00221095  RH  042%=      5-min Rain = 0
KQU1 111813Z 36019G25KT 02/M09 A3013 RMK A01 T00221092  RH  043%=      5-min Rain = 0
KQU1 111814Z 34023G30KT 02/M09 A3013 RMK A01 T00231093  RH  042%=      5-min Rain = 0
KQU1 111815Z 33024G29KT 02/M10 A3013 RMK A01 T00231096  RH  041%=      5-min Rain = 0
KQU1 111816Z 35021G26KT 02/M10 A3013 RMK A01 T00231095  RH  042%=      5-min Rain = 0
KQU1 111817Z 34020G25KT 02/M09 A3013 RMK A01 T00241094  RH  042%=      5-min Rain = 0
KQU1 111818Z 34016KT 03/M10 A3013 RMK A01 T00251096  RH  041%=      5-min Rain = 0
KQU1 111819Z 35016G21KT 03/M09 A3013 RMK A01 T00261092  RH  042%=      5-min Rain = 0
KQU1 111820Z 35015G22KT 03/M09 A3013 RMK A01 T00281092  RH  041%=      5-min Rain = 0
KQU1 111821Z 35016KT 03/M09 A3013 RMK A01 T00301090  RH  041%=      5-min Rain = 0
KQU1 111822Z 35019G24KT 03/M09 A3013 RMK A01 T00311092  RH  040%=      5-min Rain = 0
KQU1 111823Z 35019G27KT 03/M09 A3013 RMK A01 T00301093  RH  040%=      5-min Rain = 0
KQU1 111824Z 36019G26KT 03/M09 A3013 RMK A01 T00301092  RH  041%=      5-min Rain = 0
KQU1 111825Z 35021G28KT 03/M09 A3013 RMK A01 T00291093  RH  040%=      5-min Rain = 0
KQU1 111826Z 35020G28KT 03/M09 A3013 RMK A01 T00301091  RH  041%=      5-min Rain = 0
KQU1 111827Z 36020G33KT 03/M09 A3013 RMK A01 T00311091  RH  041%=      5-min Rain = 0
KQU1 111828Z 35022G29KT 03/M09 A3014 RMK A01 T00301092  RH  040%=      5-min Rain = 0
KQU1 111829Z 35014G21KT 03/M09 A3014 RMK A01 T00311088  RH  041%=      5-min Rain = 0
KQU1 111830Z 35014G21KT 03/M09 A3014 RMK A01 T00331088  RH  041%=      5-min Rain = 0
KQU1 111831Z 34017KT 03/M09 A3014 RMK A01 T00341091  RH  040%=      5-min Rain = 0
KQU1 111832Z 34019G27KT 03/M09 A3014 RMK A01 T00341092  RH  039%=      5-min Rain = 0
KQU1 111833Z 35018G26KT 03/M09 A3014 RMK A01 T00341091  RH  039%=      5-min Rain = 0
KQU1 111834Z 35017G23KT 04/M09 A3014 RMK A01 T00351090  RH  040%=      5-min Rain = 0
KQU1 111835Z 35015G23KT 04/M09 A3014 RMK A01 T00361088  RH  040%=      5-min Rain = 0
KQU1 111836Z 35018G25KT 04/M09 A3014 RMK A01 T00371091  RH  039%=      5-min Rain = 0
KQU1 111837Z 35021G27KT 04/M09 A3014 RMK A01 T00361092  RH  038%=      5-min Rain = 0
KQU1 111838Z 35019G26KT 04/M09 A3014 RMK A01 T00361091  RH  039%=      5-min Rain = 0
KQU1 111839Z 34013G21KT 04/M09 A3014 RMK A01 T00371087  RH  040%=      5-min Rain = 0
KQU1 111840Z 33018G23KT 04/M09 A3014 RMK A01 T00381090  RH  039%=      5-min Rain = 0
KQU1 111841Z 34018G24KT 04/M09 A3013 RMK A01 T00381091  RH  038%=      5-min Rain = 0
KQU1 111842Z 35022G29KT 04/M09 A3013 RMK A01 T00391090  RH  039%=      5-min Rain = 0
KQU1 111843Z 34022G27KT 04/M09 A3013 RMK A01 T00391090  RH  038%=      5-min Rain = 0
KQU1 111844Z 34021G28KT 04/M09 A3013 RMK A01 T00381090  RH  039%=      5-min Rain = 0
KQU1 111845Z 35018G25KT 04/M09 A3013 RMK A01 T00391088  RH  039%=      5-min Rain = 0
KQU1 111846Z 35019G25KT 04/M09 A3013 RMK A01 T00401088  RH  039%=      5-min Rain = 0
KQU1 111847Z 34023G28KT 04/M09 A3013 RMK A01 T00391090  RH  038%=      5-min Rain = 0
KQU1 111848Z 34016G22KT 04/M09 A3013 RMK A01 T00391088  RH  039%=      5-min Rain = 0
KQU1 111849Z 35016G22KT 04/M09 A3013 RMK A01 T00411086  RH  039%=      5-min Rain = 0
KQU1 111850Z 35014KT 04/M09 A3013 RMK A01 T00421085  RH  039%=      5-min Rain = 0
KQU1 111851Z 00016G24KT 04/M09 A3013 RMK A01 T00441086  RH  038%=      5-min Rain = 0
KQU1 111852Z 35016G22KT 04/M09 A3013 RMK A01 T00441087  RH  038%=      5-min Rain = 0
KQU1 111853Z 36016G25KT 05/M09 A3013 RMK A01 T00451085  RH  038%=      5-min Rain = 0
KQU1 111854Z 35022G27KT 05/M09 A3014 RMK A01 T00451089  RH  037%=      5-min Rain = 0
KQU1 111855Z 36021G27KT 04/M09 A3013 RMK A01 T00441091  RH  037%=      5-min Rain = 0
KQU1 111856Z 35024G32KT 04/M09 A3013 RMK A01 T00431092  RH  037%=      5-min Rain = 0
KQU1 111857Z 35020G26KT 04/M09 A3013 RMK A01 T00421090  RH  038%=      5-min Rain = 0
KQU1 111858Z 35019G26KT 04/M09 A3013 RMK A01 T00421090  RH  037%=      5-min Rain = 0
KQU1 111859Z 36019G29KT 04/M09 A3013 RMK A01 T00431089  RH  038%=      5-min Rain = 0
KQU1 111900Z 36020G26KT 04/M09 A3013 RMK A01 T00431090  RH  037%=      5-min Rain = 0
KQU1 111901Z 35021G30KT 04/M09 A3013 RMK A01 T00441088  RH  038%=      5-min Rain = 0
KQU1 111902Z 34021G28KT 04/M09 A3013 RMK A01 T00441092  RH  036%=      5-min Rain = 0
KQU1 111903Z 35020KT 04/M09 A3013 RMK A01 T00441091  RH  037%=      5-min Rain = 0
KQU1 111904Z 36016G29KT 05/M09 A3013 RMK A01 T00451088  RH  037%=      5-min Rain = 0
KQU1 111905Z 34021G26KT 05/M09 A3013 RMK A01 T00451090  RH  037%=      5-min Rain = 0
KQU1 111906Z 34025G33KT 04/M09 A3013 RMK A01 T00441092  RH  036%=      5-min Rain = 0
KQU1 111907Z 35022KT 04/M09 A3013 RMK A01 T00431093  RH  036%=      5-min Rain = 0
KQU1 111908Z 35022G27KT 04/M09 A3013 RMK A01 T00441090  RH  037%=      5-min Rain = 0
KQU1 111909Z 34019G26KT 04/M09 A3013 RMK A01 T00441093  RH  036%=      5-min Rain = 0
KQU1 111910Z 33022G29KT 04/M10 A3013 RMK A01 T00441095  RH  036%=      5-min Rain = 0
KQU1 111911Z 34020G27KT 04/M09 A3013 RMK A01 T00431093  RH  036%=      5-min Rain = 0
KQU1 111912Z 35022G29KT 04/M09 A3014 RMK A01 T00431093  RH  037%=      5-min Rain = 0
KQU1 111913Z 34020G26KT 04/M09 A3014 RMK A01 T00421093  RH  037%=      5-min Rain = 0
KQU1 111914Z 35020G27KT 04/M09 A3013 RMK A01 T00431090  RH  038%=      5-min Rain = 0
KQU1 111915Z 35021G29KT 04/M09 A3013 RMK A01 T00421092  RH  037%=      5-min Rain = 0
KQU1 111916Z 35021G28KT 04/M09 A3013 RMK A01 T00421092  RH  037%=      5-min Rain = 0
KQU1 111917Z 35019G29KT 04/M09 A3014 RMK A01 T00431091  RH  037%=      5-min Rain = 0
KQU1 111918Z 35021G26KT 04/M09 A3014 RMK A01 T00431092  RH  037%=      5-min Rain = 0
KQU1 111919Z 34017G24KT 04/M09 A3014 RMK A01 T00431092  RH  037%=      5-min Rain = 0
KQU1 111920Z 34018KT 04/M09 A3014 RMK A01 T00441092  RH  036%=      5-min Rain = 0
KQU1 111921Z 34016G22KT 04/M10 A3014 RMK A01 T00441095  RH  036%=      5-min Rain = 0
KQU1 111922Z 34019KT 05/M09 A3014 RMK A01 T00461092  RH  036%=      5-min Rain = 0
KQU1 111923Z 34021G29KT 05/M10 A3014 RMK A01 T00461095  RH  035%=      5-min Rain = 0
KQU1 111924Z 34020G25KT 05/M10 A3014 RMK A01 T00451097  RH  035%=      5-min Rain = 0
KQU1 111925Z 35017G22KT 05/M09 A3014 RMK A01 T00451094  RH  036%=      5-min Rain = 0
KQU1 111926Z 34020G26KT 05/M09 A3014 RMK A01 T00461093  RH  036%=      5-min Rain = 0
KQU1 111927Z 35017G27KT 05/M09 A3014 RMK A01 T00471093  RH  035%=      5-min Rain = 0
KQU1 111928Z 35021G29KT 05/M10 A3014 RMK A01 T00471095  RH  035%=      5-min Rain = 0
KQU1 111929Z 34018G25KT 05/M10 A3014 RMK A01 T00461095  RH  035%=      5-min Rain = 0
KQU1 111930Z 34017G23KT 05/M09 A3014 RMK A01 T00461094  RH  035%=      5-min Rain = 0
KQU1 111931Z 35014G22KT 05/M09 A3014 RMK A01 T00471093  RH  035%=      5-min Rain = 0
KQU1 111932Z 00012G18KT 05/M09 A3014 RMK A01 T00491090  RH  036%=      5-min Rain = 0
KQU1 111933Z 00015G25KT 05/M09 A3014 RMK A01 T00501092  RH  035%=      5-min Rain = 0
KQU1 111934Z 35016G22KT 05/M09 A3014 RMK A01 T00501093  RH  035%=      5-min Rain = 0
KQU1 111935Z 34012G18KT 05/M09 A3013 RMK A01 T00511089  RH  036%=      5-min Rain = 0
KQU1 111936Z 01013G20KT 05/M09 A3013 RMK A01 T00521088  RH  035%=      5-min Rain = 0
KQU1 111937Z 34012G20KT 05/M09 A3013 RMK A01 T00531089  RH  035%=      5-min Rain = 0
KQU1 111938Z 35015G20KT 05/M09 A3014 RMK A01 T00541091  RH  034%=      5-min Rain = 0
KQU1 111939Z 34015KT 05/M09 A3014 RMK A01 T00541091  RH  034%=      5-min Rain = 0
KQU1 111940Z 34019G25KT 05/M09 A3014 RMK A01 T00541092  RH  034%=      5-min Rain = 0
KQU1 111941Z 34017G22KT 05/M09 A3014 RMK A01 T00531092  RH  034%=      5-min Rain = 0
KQU1 111942Z 34018KT 05/M09 A3014 RMK A01 T00531092  RH  034%=      5-min Rain = 0
KQU1 111943Z 34015G20KT 05/M09 A3014 RMK A01 T00531092  RH  034%=      5-min Rain = 0
KQU1 111944Z 35011G19KT 05/M09 A3014 RMK A01 T00541090  RH  034%=      5-min Rain = 0
KQU1 111945Z 34015G21KT 06/M09 A3014 RMK A01 T00561090  RH  034%=      5-min Rain = 0
KQU1 111946Z 34016KT 06/M09 A3014 RMK A01 T00571091  RH  033%=      5-min Rain = 0
KQU1 111947Z 34017G23KT 06/M09 A3014 RMK A01 T00571093  RH  033%=      5-min Rain = 0
KQU1 111948Z 35011KT 06/M09 A3014 RMK A01 T00581087  RH  034%=      5-min Rain = 0
KQU1 111949Z 34014G21KT 06/M09 A3013 RMK A01 T00601089  RH  033%=      5-min Rain = 0
KQU1 111950Z 35017G22KT 06/M09 A3014 RMK A01 T00601092  RH  033%=      5-min Rain = 0
KQU1 111951Z 35011G18KT 06/M09 A3014 RMK A01 T00601090  RH  033%=      5-min Rain = 0
KQU1 111952Z 34016KT 06/M09 A3013 RMK A01 T00611091  RH  033%=      5-min Rain = 0
KQU1 111953Z 34018G23KT 06/M09 A3014 RMK A01 T00611092  RH  032%=      5-min Rain = 0
KQU1 111954Z 34019G29KT 06/M09 A3014 RMK A01 T00601094  RH  032%=      5-min Rain = 0
KQU1 111955Z 35019G26KT 06/M09 A3014 RMK A01 T00591093  RH  033%=      5-min Rain = 0
KQU1 111956Z 35020G28KT 06/M09 A3014 RMK A01 T00581094  RH  033%=      5-min Rain = 0
KQU1 111957Z 36019G27KT 06/M09 A3014 RMK A01 T00571093  RH  033%=      5-min Rain = 0
KQU1 111958Z 35019G28KT 06/M09 A3014 RMK A01 T00571094  RH  033%=      5-min Rain = 0
KQU1 111959Z 36016G23KT 06/M09 A3014 RMK A01 T00571093  RH  033%=      5-min Rain = 0
KQU1 112000Z 00014G24KT 06/M09 A3014 RMK A01 T00571091  RH  033%=      5-min Rain = 0
KQU1 112001Z 35016G23KT 06/M09 A3014 RMK A01 T00581091  RH  033%=      5-min Rain = 0
KQU1 112002Z 00016G24KT 06/M09 A3014 RMK A01 T00591093  RH  033%=      5-min Rain = 0
KQU1 112003Z 35018G24KT 06/M09 A3015 RMK A01 T00591093  RH  033%=      5-min Rain = 0
KQU1 112004Z 34019G24KT 06/M10 A3014 RMK A01 T00601095  RH  032%=      5-min Rain = 0
KQU1 112005Z 34015G20KT 06/M09 A3015 RMK A01 T00591094  RH  032%=      5-min Rain = 0
KQU1 112006Z 35014G21KT 06/M09 A3015 RMK A01 T00601092  RH  033%=      5-min Rain = 0
KQU1 112007Z 35013G18KT 06/M09 A3014 RMK A01 T00601091  RH  033%=      5-min Rain = 0
KQU1 112008Z 36012G18KT 06/M09 A3014 RMK A01 T00611091  RH  033%=      5-min Rain = 0
KQU1 112009Z 35015G20KT 06/M09 A3014 RMK A01 T00611090  RH  033%=      5-min Rain = 0
KQU1 112010Z 35014G19KT 06/M09 A3014 RMK A01 T00611092  RH  032%=      5-min Rain = 0
KQU1 112011Z 35016G21KT 06/M09 A3014 RMK A01 T00601092  RH  033%=      5-min Rain = 0
KQU1 112012Z 36015G20KT 06/M09 A3014 RMK A01 T00591093  RH  033%=      5-min Rain = 0
KQU1 112013Z 00016G21KT 06/M09 A3015 RMK A01 T00591093  RH  033%=      5-min Rain = 0
KQU1 112014Z 34017G22KT 06/M09 A3015 RMK A01 T00591093  RH  033%=      5-min Rain = 0
KQU1 112015Z 34016G23KT 06/M10 A3014 RMK A01 T00581095  RH  032%=      5-min Rain = 0
KQU1 112016Z 34015G21KT 06/M09 A3015 RMK A01 T00591094  RH  032%=      5-min Rain = 0
KQU1 112017Z 36015KT 06/M09 A3015 RMK A01 T00601092  RH  033%=      5-min Rain = 0
KQU1 112018Z 35012G17KT 06/M09 A3015 RMK A01 T00601090  RH  033%=      5-min Rain = 0
KQU1 112019Z 36012G19KT 06/M09 A3015 RMK A01 T00611090  RH  033%=      5-min Rain = 0
KQU1 112020Z 01009G14KT 06/M09 A3015 RMK A01 T00621089  RH  033%=      5-min Rain = 0
KQU1 112021Z 00015G21KT 06/M09 A3015 RMK A01 T00641090  RH  032%=      5-min Rain = 0
KQU1 112022Z 36017G24KT 06/M09 A3015 RMK A01 T00631093  RH  032%=      5-min Rain = 0
KQU1 112023Z 34017G29KT 06/M09 A3015 RMK A01 T00631091  RH  032%=      5-min Rain = 0
KQU1 112024Z 33018KT 06/M10 A3015 RMK A01 T00621095  RH  032%=      5-min Rain = 0
KQU1 112025Z 34023G29KT 06/M10 A3015 RMK A01 T00621098  RH  031%=      5-min Rain = 0
KQU1 112026Z 34017G22KT 06/M10 A3015 RMK A01 T00611095  RH  032%=      5-min Rain = 0
KQU1 112027Z 34016G27KT 06/M09 A3015 RMK A01 T00621093  RH  032%=      5-min Rain = 0
KQU1 112028Z 34019G26KT 06/M10 A3015 RMK A01 T00621096  RH  031%=      5-min Rain = 0
KQU1 112029Z 34021G27KT 06/M10 A3015 RMK A01 T00621098  RH  031%=      5-min Rain = 0
KQU1 112030Z 34019G28KT 06/M10 A3015 RMK A01 T00621098  RH  031%=      5-min Rain = 0
KQU1 112031Z 36021G29KT 06/M10 A3015 RMK A01 T00621098  RH  031%=      5-min Rain = 0
KQU1 112032Z 00020G32KT 06/M10 A3015 RMK A01 T00621096  RH  031%=      5-min Rain = 0
KQU1 112033Z 35019G25KT 06/M10 A3015 RMK A01 T00621096  RH  031%=      5-min Rain = 0
KQU1 112034Z 35020G28KT 06/M10 A3015 RMK A01 T00631097  RH  031%=      5-min Rain = 0
KQU1 112035Z 36019G26KT 06/M10 A3015 RMK A01 T00621099  RH  031%=      5-min Rain = 0
KQU1 112036Z 00019G29KT 06/M10 A3015 RMK A01 T00611097  RH  031%=      5-min Rain = 0
KQU1 112037Z 00016G22KT 06/M10 A3016 RMK A01 T00601097  RH  031%=      5-min Rain = 0
KQU1 112038Z 01015G24KT 06/M10 A3015 RMK A01 T00611095  RH  032%=      5-min Rain = 0
KQU1 112039Z 36016G27KT 06/M10 A3015 RMK A01 T00611095  RH  032%=      5-min Rain = 0
KQU1 112040Z 00014G22KT 06/M09 A3016 RMK A01 T00611094  RH  032%=      5-min Rain = 0
KQU1 112041Z 00013G22KT 06/M09 A3016 RMK A01 T00611093  RH  032%=      5-min Rain = 0
KQU1 112042Z 35022G27KT 06/M10 A3016 RMK A01 T00611096  RH  031%=      5-min Rain = 0
KQU1 112043Z 35017G24KT 06/M10 A3016 RMK A01 T00611095  RH  032%=      5-min Rain = 0
KQU1 112044Z 35019G27KT 06/M10 A3016 RMK A01 T00611096  RH  032%=      5-min Rain = 0
KQU1 112045Z 35021G31KT 06/M10 A3016 RMK A01 T00611096  RH  031%=      5-min Rain = 0
KQU1 112046Z 36019G25KT 06/M10 A3015 RMK A01 T00601098  RH  031%=      5-min Rain = 0
KQU1 112047Z 36015G23KT 06/M10 A3016 RMK A01 T00611095  RH  032%=      5-min Rain = 0
KQU1 112048Z 35018G28KT 06/M10 A3016 RMK A01 T00621095  RH  032%=      5-min Rain = 0
KQU1 112049Z 35019G27KT 06/M10 A3016 RMK A01 T00611097  RH  031%=      5-min Rain = 0
KQU1 112050Z 00018G24KT 06/M10 A3016 RMK A01 T00621096  RH  031%=      5-min Rain = 0
KQU1 112051Z 36019G26KT 06/M10 A3016 RMK A01 T00621097  RH  031%=      5-min Rain = 0
KQU1 112052Z 35016G25KT 06/M10 A3016 RMK A01 T00611097  RH  031%=      5-min Rain = 0
KQU1 112053Z 35017G25KT 06/M10 A3016 RMK A01 T00611097  RH  031%=      5-min Rain = 0
KQU1 112054Z 35019KT 06/M10 A3016 RMK A01 T00611097  RH  031%=      5-min Rain = 0
KQU1 112055Z 35021G26KT 06/M10 A3016 RMK A01 T00601098  RH  031%=      5-min Rain = 0
KQU1 112056Z 35018G25KT 06/M10 A3017 RMK A01 T00601096  RH  032%=      5-min Rain = 0
KQU1 112057Z 35017G25KT 06/M10 A3016 RMK A01 T00611095  RH  032%=      5-min Rain = 0
KQU1 112058Z 35017G25KT 06/M10 A3017 RMK A01 T00611095  RH  032%=      5-min Rain = 0
KQU1 112059Z 36016G24KT 06/M10 A3017 RMK A01 T00621095  RH  032%=      5-min Rain = 0
KQU1 112100Z 34016G22KT 06/M09 A3017 RMK A01 T00621094  RH  032%=      5-min Rain = 0
KQU1 112101Z 35017G26KT 06/M10 A3017 RMK A01 T00621095  RH  032%=      5-min Rain = 0
KQU1 112102Z 35022KT 06/M10 A3016 RMK A01 T00611096  RH  031%=      5-min Rain = 0
KQU1 112103Z 35017G23KT 06/M09 A3017 RMK A01 T00611093  RH  032%=      5-min Rain = 0
KQU1 112104Z 35020G26KT 06/M10 A3017 RMK A01 T00621095  RH  031%=      5-min Rain = 0
KQU1 112105Z 35022G27KT 06/M10 A3017 RMK A01 T00621096  RH  031%=      5-min Rain = 0
KQU1 112106Z 35018G24KT 06/M09 A3017 RMK A01 T00621094  RH  032%=      5-min Rain = 0
KQU1 112107Z 35012G18KT 06/M09 A3017 RMK A01 T00631091  RH  032%=      5-min Rain = 0
KQU1 112108Z 35013G19KT 07/M09 A3017 RMK A01 T00651091  RH  032%=      5-min Rain = 0
KQU1 112109Z 34019G24KT 07/M09 A3017 RMK A01 T00651093  RH  031%=      5-min Rain = 0
KQU1 112110Z 35016G22KT 07/M09 A3017 RMK A01 T00651093  RH  031%=      5-min Rain = 0
KQU1 112111Z 35013G19KT 07/M09 A3017 RMK A01 T00661091  RH  032%=      5-min Rain = 0
KQU1 112112Z 34013G19KT 07/M09 A3017 RMK A01 T00661091  RH  031%=      5-min Rain = 0
KQU1 112113Z 35013G19KT 07/M09 A3017 RMK A01 T00661091  RH  032%=      5-min Rain = 0
KQU1 112114Z 34016G25KT 07/M09 A3017 RMK A01 T00661093  RH  031%=      5-min Rain = 0
KQU1 112115Z 35013G19KT 07/M09 A3017 RMK A01 T00651091  RH  032%=      5-min Rain = 0
KQU1 112116Z 34015G22KT 07/M09 A3017 RMK A01 T00651092  RH  031%=      5-min Rain = 0
KQU1 112117Z 00011KT 07/M09 A3017 RMK A01 T00651090  RH  032%=      5-min Rain = 0
KQU1 112118Z 02009G16KT 07/M09 A3017 RMK A01 T00661089  RH  032%=      5-min Rain = 0
KQU1 112119Z 00008G15KT 07/M09 A3017 RMK A01 T00671089  RH  032%=      5-min Rain = 0
KQU1 112120Z 01012G17KT 07/M09 A3017 RMK A01 T00681089  RH  032%=      5-min Rain = 0
KQU1 112121Z 00017KT 07/M09 A3017 RMK A01 T00671092  RH  031%=      5-min Rain = 0
KQU1 112122Z 35013G18KT 07/M09 A3017 RMK A01 T00671091  RH  031%=      5-min Rain = 0
KQU1 112123Z 35016KT 07/M09 A3017 RMK A01 T00681090  RH  031%=      5-min Rain = 0
KQU1 112124Z 35015KT 07/M09 A3017 RMK A01 T00671092  RH  031%=      5-min Rain = 0
KQU1 112125Z 35014G19KT 07/M09 A3017 RMK A01 T00671090  RH  032%=      5-min Rain = 0
KQU1 112126Z 35014G20KT 07/M09 A3017 RMK A01 T00681089  RH  032%=      5-min Rain = 0
KQU1 112127Z 35016G22KT 07/M09 A3018 RMK A01 T00691090  RH  031%=      5-min Rain = 0
KQU1 112128Z 35016G22KT 07/M09 A3018 RMK A01 T00681090  RH  031%=      5-min Rain = 0
KQU1 112129Z 35018G24KT 07/M09 A3017 RMK A01 T00671092  RH  031%=      5-min Rain = 0
KQU1 112130Z 35016G22KT 07/M09 A3018 RMK A01 T00671091  RH  031%=      5-min Rain = 0
KQU1 112131Z 35015G21KT 07/M09 A3018 RMK A01 T00671091  RH  031%=      5-min Rain = 0
KQU1 112132Z 35016KT 07/M09 A3018 RMK A01 T00681090  RH  032%=      5-min Rain = 0
KQU1 112133Z 35016KT 07/M09 A3018 RMK A01 T00681091  RH  031%=      5-min Rain = 0
KQU1 112134Z 34019KT 07/M09 A3018 RMK A01 T00671092  RH  031%=      5-min Rain = 0
KQU1 112135Z 34013KT 07/M09 A3018 RMK A01 T00661091  RH  032%=      5-min Rain = 0
KQU1 112136Z 35014KT 07/M09 A3018 RMK A01 T00671089  RH  032%=      5-min Rain = 0
KQU1 112137Z 35017G22KT 07/M09 A3018 RMK A01 T00671090  RH  032%=      5-min Rain = 0
KQU1 112138Z 34016KT 07/M09 A3018 RMK A01 T00671090  RH  031%=      5-min Rain = 0
KQU1 112139Z 34018KT 07/M09 A3018 RMK A01 T00671092  RH  031%=      5-min Rain = 0
KQU1 112140Z 35014KT 07/M09 A3018 RMK A01 T00671089  RH  032%=      5-min Rain = 0
KQU1 112141Z 36012G18KT 07/M09 A3018 RMK A01 T00681089  RH  032%=      5-min Rain = 0
KQU1 112142Z 36013G19KT 07/M09 A3018 RMK A01 T00681089  RH  031%=      5-min Rain = 0
KQU1 112143Z 36017KT 07/M09 A3018 RMK A01 T00691089  RH  032%=      5-min Rain = 0
KQU1 112144Z 35013G23KT 07/M09 A3018 RMK A01 T00691089  RH  032%=      5-min Rain = 0
KQU1 112145Z 00013G19KT 07/M09 A3018 RMK A01 T00691088  RH  032%=      5-min Rain = 0
KQU1 112146Z 00011KT 07/M09 A3018 RMK A01 T00691088  RH  032%=      5-min Rain = 0
KQU1 112147Z 36014G22KT 07/M09 A3018 RMK A01 T00691088  RH  032%=      5-min Rain = 0
KQU1 112148Z 01009KT 07/M09 A3018 RMK A01 T00691086  RH  032%=      5-min Rain = 0
KQU1 112149Z 00010G17KT 07/M09 A3018 RMK A01 T00701087  RH  032%=      5-min Rain = 0
KQU1 112150Z 01006G12KT 07/M09 A3018 RMK A01 T00711086  RH  032%=      5-min Rain = 0
KQU1 112151Z 01008G14KT 07/M08 A3018 RMK A01 T00711084  RH  032%=      5-min Rain = 0
KQU1 112152Z 00009KT 07/M09 A3018 RMK A01 T00731085  RH  032%=      5-min Rain = 0
KQU1 112153Z 35013G24KT 07/M09 A3018 RMK A01 T00731087  RH  031%=      5-min Rain = 0
KQU1 112154Z 34018G24KT 07/M09 A3018 RMK A01 T00711094  RH  030%=      5-min Rain = 0
KQU1 112155Z 35010G17KT 07/M09 A3018 RMK A01 T00711091  RH  031%=      5-min Rain = 0
KQU1 112156Z 34014G20KT 07/M09 A3018 RMK A01 T00721091  RH  030%=      5-min Rain = 0
KQU1 112157Z 34016G23KT 07/M09 A3018 RMK A01 T00711093  RH  030%=      5-min Rain = 0
KQU1 112158Z 36016G22KT 07/M09 A3018 RMK A01 T00701093  RH  030%=      5-min Rain = 0
KQU1 112159Z 35016KT 07/M09 A3018 RMK A01 T00701093  RH  030%=      5-min Rain = 0
KQU1 112200Z 36016G22KT 07/M09 A3018 RMK A01 T00701093  RH  030%=      5-min Rain = 0
KQU1 112201Z 35011G18KT 07/M09 A3018 RMK A01 T00701093  RH  030%=      5-min Rain = 0
KQU1 112202Z 35017G25KT 07/M09 A3018 RMK A01 T00701093  RH  030%=      5-min Rain = 0
KQU1 112203Z 36014G19KT 07/M09 A3018 RMK A01 T00701093  RH  030%=      5-min Rain = 0
KQU1 112204Z 36012G20KT 07/M09 A3018 RMK A01 T00701091  RH  031%=      5-min Rain = 0
KQU1 112205Z 36015G21KT 07/M09 A3018 RMK A01 T00701092  RH  030%=      5-min Rain = 0
KQU1 112206Z 00017G27KT 07/M10 A3018 RMK A01 T00701095  RH  030%=      5-min Rain = 0
KQU1 112207Z 35014G20KT 07/M09 A3018 RMK A01 T00701092  RH  030%=      5-min Rain = 0
KQU1 112208Z 35013KT 07/M09 A3018 RMK A01 T00711093  RH  030%=      5-min Rain = 0
KQU1 112209Z 36014KT 07/M09 A3018 RMK A01 T00711093  RH  030%=      5-min Rain = 0
KQU1 112210Z 34015KT 07/M09 A3018 RMK A01 T00711094  RH  030%=      5-min Rain = 0
KQU1 112211Z 35013KT 07/M09 A3018 RMK A01 T00701094  RH  030%=      5-min Rain = 0
KQU1 112212Z 00010KT 07/M09 A3018 RMK A01 T00711092  RH  030%=      5-min Rain = 0
KQU1 112213Z 00016G23KT 07/M10 A3018 RMK A01 T00711095  RH  030%=      5-min Rain = 0
KQU1 112214Z 36016G21KT 07/M10 A3018 RMK A01 T00701096  RH  029%=      5-min Rain = 0
KQU1 112215Z 35017G23KT 07/M10 A3018 RMK A01 T00701095  RH  030%=      5-min Rain = 0
KQU1 112216Z 35018G23KT 07/M10 A3019 RMK A01 T00691096  RH  030%=      5-min Rain = 0
KQU1 112217Z 35017KT 07/M10 A3019 RMK A01 T00691097  RH  030%=      5-min Rain = 0
KQU1 112218Z 35010G16KT 07/M10 A3019 RMK A01 T00681095  RH  030%=      5-min Rain = 0
KQU1 112219Z 36010G15KT 07/M09 A3019 RMK A01 T00691093  RH  030%=      5-min Rain = 0
KQU1 112220Z 00014G20KT 07/M09 A3019 RMK A01 T00691094  RH  030%=      5-min Rain = 0
KQU1 112221Z 00018KT 07/M10 A3019 RMK A01 T00691096  RH  030%=      5-min Rain = 0
KQU1 112222Z 00011G19KT 07/M09 A3019 RMK A01 T00691094  RH  030%=      5-min Rain = 0
KQU1 112223Z 36006G12KT 07/M09 A3019 RMK A01 T00691093  RH  030%=      5-min Rain = 0
KQU1 112224Z 01010KT 07/M09 A3019 RMK A01 T00701093  RH  030%=      5-min Rain = 0
KQU1 112225Z 00011G17KT 07/M09 A3019 RMK A01 T00701094  RH  030%=      5-min Rain = 0
KQU1 112226Z 00011G18KT 07/M10 A3019 RMK A01 T00701095  RH  030%=      5-min Rain = 0
KQU1 112227Z 35009KT 07/M09 A3019 RMK A01 T00691093  RH  030%=      5-min Rain = 0
KQU1 112228Z 35011G17KT 07/M09 A3019 RMK A01 T00691094  RH  030%=      5-min Rain = 0
KQU1 112229Z 35011KT 07/M09 A3019 RMK A01 T00691093  RH  030%=      5-min Rain = 0
KQU1 112230Z 01011KT 07/M09 A3019 RMK A01 T00691091  RH  031%=      5-min Rain = 0
KQU1 112231Z 00012G18KT 07/M10 A3019 RMK A01 T00691095  RH  030%=      5-min Rain = 0
KQU1 112232Z 36011KT 07/M09 A3019 RMK A01 T00691094  RH  030%=      5-min Rain = 0
KQU1 112233Z 36011KT 07/M09 A3019 RMK A01 T00691093  RH  030%=      5-min Rain = 0
KQU1 112234Z 00007KT 07/M09 A3019 RMK A01 T00691092  RH  031%=      5-min Rain = 0
KQU1 112235Z 01009G15KT 07/M09 A3019 RMK A01 T00691092  RH  031%=      5-min Rain = 0
KQU1 112236Z 35009KT 07/M09 A3019 RMK A01 T00691094  RH  030%=      5-min Rain = 0
KQU1 112237Z 36009G17KT 07/M09 A302 RMK A01 T00691093  RH  031%=      5-min Rain = 0
KQU1 112238Z 35014G24KT 07/M09 A302 RMK A01 T00691094  RH  030%=      5-min Rain = 0
KQU1 112239Z 35012G18KT 07/M09 A302 RMK A01 T00681094  RH  030%=      5-min Rain = 0
KQU1 112240Z 00008G14KT 07/M09 A302 RMK A01 T00691091  RH  031%=      5-min Rain = 0
KQU1 112241Z 01009G14KT 07/M09 A302 RMK A01 T00691092  RH  031%=      5-min Rain = 0
KQU1 112242Z 36010G15KT 07/M09 A3019 RMK A01 T00681093  RH  031%=      5-min Rain = 0
KQU1 112243Z 00009KT 07/M09 A302 RMK A01 T00691092  RH  031%=      5-min Rain = 0
KQU1 112244Z 36010G16KT 07/M09 A3019 RMK A01 T00691092  RH  031%=      5-min Rain = 0
KQU1 112245Z 01011G18KT 07/M09 A3019 RMK A01 T00691093  RH  031%=      5-min Rain = 0
KQU1 112246Z 36013G18KT 07/M09 A3019 RMK A01 T00681094  RH  030%=      5-min Rain = 0
KQU1 112247Z 36014KT 07/M10 A302 RMK A01 T00681096  RH  030%=      5-min Rain = 0
KQU1 112248Z 00009G15KT 07/M09 A302 RMK A01 T00681094  RH  030%=      5-min Rain = 0
KQU1 112249Z 36009G14KT 07/M09 A302 RMK A01 T00691093  RH  030%=      5-min Rain = 0
KQU1 112250Z 36010KT 07/M09 A302 RMK A01 T00691093  RH  030%=      5-min Rain = 0
KQU1 112251Z 01014G19KT 07/M10 A302 RMK A01 T00691095  RH  030%=      5-min Rain = 0
KQU1 112252Z 35011G18KT 07/M09 A302 RMK A01 T00691094  RH  030%=      5-min Rain = 0
KQU1 112253Z 36015G20KT 07/M10 A302 RMK A01 T00691095  RH  030%=      5-min Rain = 0
KQU1 112254Z 35015G20KT 07/M10 A302 RMK A01 T00681095  RH  030%=      5-min Rain = 0
KQU1 112255Z 36015KT 07/M10 A302 RMK A01 T00681096  RH  030%=      5-min Rain = 0
KQU1 112256Z 35012G18KT 07/M10 A302 RMK A01 T00681095  RH  030%=      5-min Rain = 0
KQU1 112257Z 36014KT 07/M10 A302 RMK A01 T00671095  RH  030%=      5-min Rain = 0
KQU1 112258Z 35014G21KT 07/M10 A302 RMK A01 T00671096  RH  030%=      5-min Rain = 0
KQU1 112259Z 01012G21KT 07/M09 A302 RMK A01 T00671094  RH  031%=      5-min Rain = 0
KQU1 112300Z 35013KT 07/M10 A302 RMK A01 T00671095  RH  031%=      5-min Rain = 0
KQU1 112301Z 35012G18KT 07/M09 A302 RMK A01 T00671094  RH  031%=      5-min Rain = 0
KQU1 112302Z 35013KT 07/M10 A3021 RMK A01 T00671095  RH  030%=      5-min Rain = 0
KQU1 112303Z 35012KT 07/M09 A3021 RMK A01 T00661094  RH  031%=      5-min Rain = 0
KQU1 112304Z 00010KT 07/M09 A3021 RMK A01 T00661093  RH  031%=      5-min Rain = 0
KQU1 112305Z 35013G18KT 07/M09 A3021 RMK A01 T00661094  RH  031%=      5-min Rain = 0
KQU1 112306Z 36012KT 07/M10 A3021 RMK A01 T00661095  RH  031%=      5-min Rain = 0
KQU1 112307Z 00008G14KT 07/M10 A3021 RMK A01 T00661095  RH  031%=      5-min Rain = 0
KQU1 112308Z 35008KT 07/M09 A3021 RMK A01 T00661093  RH  031%=      5-min Rain = 0
KQU1 112309Z 01009G14KT 07/M09 A3021 RMK A01 T00661093  RH  031%=      5-min Rain = 0
KQU1 112310Z 00011G16KT 07/M09 A3021 RMK A01 T00651093  RH  031%=      5-min Rain = 0
KQU1 112311Z 00010G15KT 07/M09 A3021 RMK A01 T00651094  RH  031%=      5-min Rain = 0
KQU1 112312Z 36009KT 06/M09 A3021 RMK A01 T00641092  RH  032%=      5-min Rain = 0
KQU1 112313Z 36009KT 06/M09 A3021 RMK A01 T00641092  RH  032%=      5-min Rain = 0
KQU1 112314Z 01006G14KT 06/M09 A3021 RMK A01 T00641093  RH  032%=      5-min Rain = 0
KQU1 112315Z 01009G14KT 06/M09 A3021 RMK A01 T00641093  RH  032%=      5-min Rain = 0
KQU1 112316Z 01009KT 06/M09 A3021 RMK A01 T00641092  RH  032%=      5-min Rain = 0
KQU1 112317Z 36009KT 06/M09 A3021 RMK A01 T00641092  RH  032%=      5-min Rain = 0
KQU1 112318Z 01008KT 06/M09 A3022 RMK A01 T00631092  RH  032%=      5-min Rain = 0
KQU1 112319Z 00010KT 06/M09 A3022 RMK A01 T00631093  RH  032%=      5-min Rain = 0
KQU1 112320Z 00008G14KT 06/M09 A3022 RMK A01 T00631092  RH  032%=      5-min Rain = 0
KQU1 112321Z 36010KT 06/M09 A3022 RMK A01 T00621091  RH  032%=      5-min Rain = 0
KQU1 112322Z 36008KT 06/M09 A3022 RMK A01 T00621092  RH  032%=      5-min Rain = 0
KQU1 112323Z 36010KT 06/M09 A3022 RMK A01 T00621093  RH  032%=      5-min Rain = 0
KQU1 112324Z 00007KT 06/M09 A3022 RMK A01 T00611092  RH  032%=      5-min Rain = 0
KQU1 112325Z 36008KT 06/M09 A3022 RMK A01 T00611091  RH  033%=      5-min Rain = 0
KQU1 112326Z 36010KT 06/M09 A3022 RMK A01 T00611092  RH  032%=      5-min Rain = 0
KQU1 112327Z 35008KT 06/M09 A3022 RMK A01 T00611091  RH  033%=      5-min Rain = 0
KQU1 112328Z 35007KT 06/M09 A3022 RMK A01 T00601091  RH  033%=      5-min Rain = 0
KQU1 112329Z 35012KT 06/M09 A3022 RMK A01 T00601092  RH  033%=      5-min Rain = 0
KQU1 112330Z 35011KT 06/M09 A3022 RMK A01 T00601092  RH  033%=      5-min Rain = 0
KQU1 112331Z 35010KT 06/M09 A3022 RMK A01 T00601092  RH  033%=      5-min Rain = 0
KQU1 112332Z 35007KT 06/M09 A3022 RMK A01 T00601091  RH  033%=      5-min Rain = 0
KQU1 112333Z 01009KT 06/M09 A3022 RMK A01 T00591091  RH  033%=      5-min Rain = 0
KQU1 112334Z 00009KT 06/M09 A3022 RMK A01 T00591092  RH  033%=      5-min Rain = 0
KQU1 112335Z 35011KT 06/M09 A3022 RMK A01 T00581092  RH  033%=      5-min Rain = 0
KQU1 112336Z 35010G15KT 06/M09 A3022 RMK A01 T00581093  RH  033%=      5-min Rain = 0
KQU1 112337Z 36009KT 06/M09 A3022 RMK A01 T00581091  RH  033%=      5-min Rain = 0
KQU1 112338Z 35011KT 06/M09 A3022 RMK A01 T00571093  RH  033%=      5-min Rain = 0
KQU1 112339Z 35009KT 06/M09 A3022 RMK A01 T00571093  RH  033%=      5-min Rain = 0
KQU1 112340Z 35008KT 06/M09 A3022 RMK A01 T00561092  RH  033%=      5-min Rain = 0
KQU1 112341Z 00009KT 06/M09 A3023 RMK A01 T00561092  RH  034%=      5-min Rain = 0
KQU1 112342Z 36009KT 06/M09 A3023 RMK A01 T00551092  RH  034%=      5-min Rain = 0
KQU1 112343Z 36009KT 06/M09 A3023 RMK A01 T00551091  RH  034%=      5-min Rain = 0
KQU1 112344Z 00008KT 05/M09 A3023 RMK A01 T00541091  RH  034%=      5-min Rain = 0
KQU1 112345Z 36008KT 05/M09 A3023 RMK A01 T00541090  RH  035%=      5-min Rain = 0
KQU1 112346Z 00007KT 05/M09 A3023 RMK A01 T00531091  RH  035%=      5-min Rain = 0
KQU1 112347Z 01008KT 05/M09 A3023 RMK A01 T00521092  RH  035%=      5-min Rain = 0
KQU1 112348Z 00007KT 05/M09 A3023 RMK A01 T00521091  RH  035%=      5-min Rain = 0
KQU1 112349Z 36008KT 05/M09 A3023 RMK A01 T00511091  RH  035%=      5-min Rain = 0
KQU1 112350Z 36006KT 05/M09 A3023 RMK A01 T00511091  RH  035%=      5-min Rain = 0
KQU1 112351Z 36006KT 05/M09 A3023 RMK A01 T00501090  RH  035%=      5-min Rain = 0
KQU1 112352Z 36007KT 05/M09 A3023 RMK A01 T00501088  RH  036%=      5-min Rain = 0
KQU1 112353Z 00007KT 05/M09 A3023 RMK A01 T00491090  RH  036%=      5-min Rain = 0
KQU1 112354Z 36006KT 05/M09 A3023 RMK A01 T00491090  RH  036%=      5-min Rain = 0
KQU1 112355Z 36005KT 05/M09 A3023 RMK A01 T00491090  RH  036%=      5-min Rain = 0
KQU1 112356Z 36007KT 05/M09 A3023 RMK A01 T00481090  RH  036%=      5-min Rain = 0
KQU1 112357Z 36006KT 05/M09 A3023 RMK A01 T00481089  RH  036%=      5-min Rain = 0
KQU1 112358Z 35006KT 05/M09 A3023 RMK A01 T00471089  RH  036%=      5-min Rain = 0
KQU1 112359Z 00006KT 05/M09 A3023 RMK A01 T00471090  RH  036%=      5-min Rain = 0
KQU1 120000Z 35005KT 05/M09 A3023 RMK A01 T00471089  RH  037%=      5-min Rain = 0
KQU1 120001Z 36004KT 05/M09 A3023 RMK A01 T00461088  RH  037%=      5-min Rain = 0
KQU1 120002Z 36005KT 05/M09 A3023 RMK A01 T00461087  RH  037%=      5-min Rain = 0
KQU1 120003Z 35006KT 05/M09 A3024 RMK A01 T00461088  RH  037%=      5-min Rain = 0
KQU1 120004Z 36006KT 05/M09 A3024 RMK A01 T00451088  RH  037%=      5-min Rain = 0
KQU1 120005Z 35005KT 05/M09 A3024 RMK A01 T00451088  RH  038%=      5-min Rain = 0
KQU1 120006Z 36006KT 04/M09 A3024 RMK A01 T00441087  RH  038%=      5-min Rain = 0
KQU1 120007Z 36006KT 04/M09 A3024 RMK A01 T00441088  RH  038%=      5-min Rain = 0
KQU1 120008Z 36006KT 04/M09 A3024 RMK A01 T00431088  RH  038%=      5-min Rain = 0
KQU1 120009Z 36005KT 04/M09 A3024 RMK A01 T00431086  RH  038%=      5-min Rain = 0
KQU1 120010Z 00005KT 04/M09 A3024 RMK A01 T00431087  RH  038%=      5-min Rain = 0
KQU1 120011Z 36005KT 04/M09 A3024 RMK A01 T00421089  RH  038%=      5-min Rain = 0
KQU1 120012Z 36006KT 04/M09 A3024 RMK A01 T00421089  RH  038%=      5-min Rain = 0
KQU1 120013Z 36006KT 04/M09 A3024 RMK A01 T00421090  RH  038%=      5-min Rain = 0
KQU1 120014Z 36005KT 04/M09 A3024 RMK A01 T00411089  RH  038%=      5-min Rain = 0
KQU1 120015Z 00005KT 04/M09 A3024 RMK A01 T00411089  RH  038%=      5-min Rain = 0
KQU1 120016Z 00005KT 04/M09 A3024 RMK A01 T00401089  RH  038%=      5-min Rain = 0
KQU1 120017Z 00004KT 04/M09 A3024 RMK A01 T00401089  RH  038%=      5-min Rain = 0
KQU1 120018Z 36005KT 04/M09 A3024 RMK A01 T00391089  RH  039%=      5-min Rain = 0
KQU1 120019Z 00004KT 04/M09 A3024 RMK A01 T00391089  RH  039%=      5-min Rain = 0
KQU1 120020Z 35004KT 04/M09 A3024 RMK A01 T00381089  RH  039%=      5-min Rain = 0
KQU1 120021Z 36004KT 04/M09 A3024 RMK A01 T00371089  RH  039%=      5-min Rain = 0
KQU1 120022Z 35003KT 04/M09 A3024 RMK A01 T00371088  RH  040%=      5-min Rain = 0
KQU1 120023Z 35004KT 04/M09 A3024 RMK A01 T00361087  RH  040%=      5-min Rain = 0
KQU1 120024Z 34004KT 04/M09 A3024 RMK A01 T00361087  RH  040%=      5-min Rain = 0
KQU1 120025Z 35005KT 04/M09 A3024 RMK A01 T00361086  RH  040%=      5-min Rain = 0
KQU1 120026Z 35005KT 04/M09 A3024 RMK A01 T00361087  RH  040%=      5-min Rain = 0
KQU1 120027Z 35005KT 04/M09 A3024 RMK A01 T00361085  RH  041%=      5-min Rain = 0
KQU1 120028Z 35004KT 04/M09 A3024 RMK A01 T00361086  RH  040%=      5-min Rain = 0
KQU1 120029Z 35005KT 04/M09 A3024 RMK A01 T00361086  RH  040%=      5-min Rain = 0
KQU1 120030Z 35005KT 04/M09 A3025 RMK A01 T00361085  RH  041%=      5-min Rain = 0
KQU1 120031Z 34005KT 04/M09 A3025 RMK A01 T00361085  RH  041%=      5-min Rain = 0
KQU1 120032Z 34006KT 04/M09 A3025 RMK A01 T00361085  RH  041%=      5-min Rain = 0
KQU1 120033Z 34005KT 04/M09 A3025 RMK A01 T00361086  RH  040%=      5-min Rain = 0
KQU1 120034Z 35005KT 04/M09 A3025 RMK A01 T00361087  RH  040%=      5-min Rain = 0
KQU1 120035Z 34005KT 04/M09 A3025 RMK A01 T00361087  RH  040%=      5-min Rain = 0
KQU1 120036Z 33005KT 04/M09 A3025 RMK A01 T00371088  RH  040%=      5-min Rain = 0
KQU1 120037Z 34005KT 04/M09 A3025 RMK A01 T00381087  RH  040%=      5-min Rain = 0
KQU1 120038Z 34005KT 04/M09 A3025 RMK A01 T00381087  RH  040%=      5-min Rain = 0
KQU1 120039Z 34005KT 04/M09 A3025 RMK A01 T00371086  RH  040%=      5-min Rain = 0
KQU1 120040Z 34005KT 04/M09 A3025 RMK A01 T00381086  RH  040%=      5-min Rain = 0
KQU1 120041Z 34007KT 04/M09 A3025 RMK A01 T00391086  RH  040%=      5-min Rain = 0
KQU1 120042Z 34007KT 04/M09 A3025 RMK A01 T00401086  RH  039%=      5-min Rain = 0
KQU1 120043Z 34007KT 04/M09 A3025 RMK A01 T00411086  RH  039%=      5-min Rain = 0
KQU1 120044Z 34007KT 04/M09 A3025 RMK A01 T00421087  RH  039%=      5-min Rain = 0
KQU1 120045Z 34005KT 04/M09 A3025 RMK A01 T00421085  RH  039%=      5-min Rain = 0
KQU1 120046Z 35005KT 04/M08 A3025 RMK A01 T00431084  RH  039%=      5-min Rain = 0
KQU1 120047Z 35005KT 04/M08 A3025 RMK A01 T00431082  RH  040%=      5-min Rain = 0
KQU1 120048Z 34005KT 04/M08 A3025 RMK A01 T00421083  RH  040%=      5-min Rain = 0
KQU1 120049Z 34006KT 04/M08 A3025 RMK A01 T00421084  RH  039%=      5-min Rain = 0
KQU1 120050Z 34006KT 04/M09 A3025 RMK A01 T00421085  RH  039%=      5-min Rain = 0
KQU1 120051Z 33005KT 04/M09 A3025 RMK A01 T00411086  RH  039%=      5-min Rain = 0
KQU1 120052Z 34005KT 04/M09 A3025 RMK A01 T00411089  RH  038%=      5-min Rain = 0
KQU1 120053Z 34005KT 04/M09 A3025 RMK A01 T00411089  RH  038%=      5-min Rain = 0
KQU1 120054Z 34004KT 04/M09 A3025 RMK A01 T00411090  RH  038%=      5-min Rain = 0
KQU1 120055Z 34005KT 04/M09 A3025 RMK A01 T00401089  RH  038%=      5-min Rain = 0
KQU1 120056Z 34004KT 04/M09 A3025 RMK A01 T00411089  RH  038%=      5-min Rain = 0
KQU1 120057Z 33005KT 04/M09 A3025 RMK A01 T00411088  RH  038%=      5-min Rain = 0
KQU1 120058Z 34005KT 04/M09 A3025 RMK A01 T00411089  RH  038%=      5-min Rain = 0
KQU1 120059Z 33005KT 04/M09 A3026 RMK A01 T00411090  RH  038%=      5-min Rain = 0
KQU1 120100Z 34005KT 04/M09 A3026 RMK A01 T00411091  RH  038%=      5-min Rain = 0
KQU1 120101Z 33005KT 04/M09 A3026 RMK A01 T00411092  RH  037%=      5-min Rain = 0
KQU1 120102Z 33006KT 04/M09 A3026 RMK A01 T00411092  RH  037%=      5-min Rain = 0
KQU1 120103Z 33004KT 04/M09 A3026 RMK A01 T00401092  RH  037%=      5-min Rain = 0
KQU1 120104Z 34004KT 04/M09 A3026 RMK A01 T00401092  RH  038%=      5-min Rain = 0
KQU1 120105Z 33006KT 04/M09 A3026 RMK A01 T00391092  RH  038%=      5-min Rain = 0
KQU1 120106Z 34005KT 04/M09 A3026 RMK A01 T00401091  RH  038%=      5-min Rain = 0
KQU1 120107Z 34003KT 04/M09 A3026 RMK A01 T00411090  RH  038%=      5-min Rain = 0
KQU1 120108Z 34004KT 04/M09 A3026 RMK A01 T00411089  RH  038%=      5-min Rain = 0
KQU1 120109Z 33003KT 04/M09 A3026 RMK A01 T00401088  RH  039%=      5-min Rain = 0
KQU1 120110Z 33004KT 04/M09 A3026 RMK A01 T00401091  RH  038%=      5-min Rain = 0
KQU1 120111Z 34003KT 04/M09 A3026 RMK A01 T00381093  RH  038%=      5-min Rain = 0
KQU1 120112Z 34004KT 04/M09 A3026 RMK A01 T00371092  RH  038%=      5-min Rain = 0
KQU1 120113Z 33004KT 04/M09 A3026 RMK A01 T00361092  RH  039%=      5-min Rain = 0
KQU1 120114Z 34003KT 04/M09 A3026 RMK A01 T00361091  RH  039%=      5-min Rain = 0
KQU1 120115Z 34004KT 04/M09 A3026 RMK A01 T00351092  RH  039%=      5-min Rain = 0
KQU1 120116Z 34003KT 03/M10 A3026 RMK A01 T00331095  RH  039%=      5-min Rain = 0
KQU1 120117Z 33003KT 03/M10 A3026 RMK A01 T00311096  RH  039%=      5-min Rain = 0
KQU1 120118Z 34004KT 03/M09 A3026 RMK A01 T00291094  RH  040%=      5-min Rain = 0
KQU1 120119Z 34005KT 03/M09 A3026 RMK A01 T00291094  RH  040%=      5-min Rain = 0
KQU1 120120Z 35004KT 03/M09 A3026 RMK A01 T00301091  RH  040%=      5-min Rain = 0
KQU1 120121Z 33004KT 03/M09 A3026 RMK A01 T00321090  RH  040%=      5-min Rain = 0
KQU1 120122Z 33005KT 03/M09 A3026 RMK A01 T00321090  RH  040%=      5-min Rain = 0
KQU1 120123Z 33005KT 03/M09 A3027 RMK A01 T00331091  RH  040%=      5-min Rain = 0
KQU1 120124Z 33006KT 03/M09 A3027 RMK A01 T00331091  RH  040%=      5-min Rain = 0
KQU1 120125Z 33004KT 04/M09 A3027 RMK A01 T00351091  RH  039%=      5-min Rain = 0
KQU1 120126Z 35004KT 04/M09 A3027 RMK A01 T00351089  RH  040%=      5-min Rain = 0
KQU1 120127Z 33003KT 04/M09 A3027 RMK A01 T00351089  RH  040%=      5-min Rain = 0
KQU1 120128Z 33005KT 04/M09 A3027 RMK A01 T00351090  RH  039%=      5-min Rain = 0
KQU1 120129Z 34004KT 04/M09 A3027 RMK A01 T00361091  RH  039%=      5-min Rain = 0
KQU1 120130Z 34003KT 04/M09 A3027 RMK A01 T00351091  RH  039%=      5-min Rain = 0
KQU1 120131Z 34004KT 04/M09 A3027 RMK A01 T00351091  RH  039%=      5-min Rain = 0
KQU1 120132Z 34005KT 03/M09 A3027 RMK A01 T00341092  RH  039%=      5-min Rain = 0
KQU1 120133Z 33006KT 04/M09 A3027 RMK A01 T00351091  RH  039%=      5-min Rain = 0
KQU1 120134Z 32005KT 04/M09 A3027 RMK A01 T00361092  RH  039%=      5-min Rain = 0
KQU1 120135Z 32005KT 04/M09 A3027 RMK A01 T00351093  RH  039%=      5-min Rain = 0
KQU1 120136Z 33005KT 03/M09 A3027 RMK A01 T00341094  RH  039%=      5-min Rain = 0
KQU1 120137Z 31005KT 03/M09 A3027 RMK A01 T00311094  RH  039%=      5-min Rain = 0
KQU1 120138Z 29004KT 03/M09 A3027 RMK A01 T00291093  RH  040%=      5-min Rain = 0
KQU1 120139Z 30004KT 03/M09 A3027 RMK A01 T00261094  RH  041%=      5-min Rain = 0
KQU1 120140Z 30004KT 02/M09 A3027 RMK A01 T00241094  RH  042%=      5-min Rain = 0
KQU1 120141Z 31004KT 02/M09 A3027 RMK A01 T00221094  RH  042%=      5-min Rain = 0
KQU1 120142Z 32006KT 02/M09 A3027 RMK A01 T00211093  RH  043%=      5-min Rain = 0
KQU1 120143Z 33005KT 02/M09 A3027 RMK A01 T00231091  RH  043%=      5-min Rain = 0
KQU1 120144Z 32005KT 03/M09 A3027 RMK A01 T00251091  RH  042%=      5-min Rain = 0
KQU1 120145Z 33007KT 03/M09 A3027 RMK A01 T00251092  RH  042%=      5-min Rain = 0
KQU1 120146Z 33004KT 03/M09 A3027 RMK A01 T00261092  RH  042%=      5-min Rain = 0
KQU1 120147Z 33007KT 03/M09 A3027 RMK A01 T00271090  RH  042%=      5-min Rain = 0
KQU1 120148Z 34005KT 03/M09 A3027 RMK A01 T00301089  RH  041%=      5-min Rain = 0
KQU1 120149Z 34007KT 03/M09 A3027 RMK A01 T00311088  RH  041%=      5-min Rain = 0
KQU1 120150Z 34006KT 03/M09 A3027 RMK A01 T00321088  RH  041%=      5-min Rain = 0
KQU1 120151Z 34005KT 03/M09 A3027 RMK A01 T00341087  RH  041%=      5-min Rain = 0
KQU1 120152Z 35007KT 04/M09 A3027 RMK A01 T00351085  RH  041%=      5-min Rain = 0
KQU1 120153Z 35004KT 04/M09 A3027 RMK A01 T00351085  RH  041%=      5-min Rain = 0
KQU1 120154Z 34005KT 04/M09 A3027 RMK A01 T00351085  RH  041%=      5-min Rain = 0
KQU1 120155Z 35007KT 04/M09 A3027 RMK A01 T00351086  RH  041%=      5-min Rain = 0
KQU1 120156Z 34006KT 04/M09 A3027 RMK A01 T00361086  RH  040%=      5-min Rain = 0
KQU1 120157Z 34006KT 04/M09 A3027 RMK A01 T00371087  RH  040%=      5-min Rain = 0
KQU1 120158Z 34006KT 04/M09 A3028 RMK A01 T00371089  RH  039%=      5-min Rain = 0
KQU1 120159Z 33004KT 04/M09 A3028 RMK A01 T00361091  RH  039%=      5-min Rain = 0
KQU1 120200Z 32005KT 04/M09 A3028 RMK A01 T00351092  RH  039%=      5-min Rain = 0
KQU1 120201Z 33009KT 04/M09 A3028 RMK A01 T00351091  RH  039%=      5-min Rain = 0
KQU1 120202Z 33007KT 04/M09 A3028 RMK A01 T00361091  RH  039%=      5-min Rain = 0
KQU1 120203Z 33006KT 04/M09 A3028 RMK A01 T00361092  RH  039%=      5-min Rain = 0
KQU1 120204Z 33006KT 04/M09 A3028 RMK A01 T00361092  RH  039%=      5-min Rain = 0
KQU1 120205Z 33006KT 04/M09 A3028 RMK A01 T00361092  RH  039%=      5-min Rain = 0
KQU1 120206Z 34007KT 04/M09 A3028 RMK A01 T00361091  RH  039%=      5-min Rain = 0
KQU1 120207Z 33005KT 04/M09 A3028 RMK A01 T00371090  RH  039%=      5-min Rain = 0
KQU1 120208Z 33007KT 04/M09 A3028 RMK A01 T00371091  RH  039%=      5-min Rain = 0
KQU1 120209Z 34007KT 04/M09 A3028 RMK A01 T00371091  RH  039%=      5-min Rain = 0
KQU1 120210Z 34005KT 04/M09 A3028 RMK A01 T00381091  RH  038%=      5-min Rain = 0
KQU1 120211Z 34005KT 04/M09 A3028 RMK A01 T00381090  RH  039%=      5-min Rain = 0
KQU1 120212Z 34007KT 04/M09 A3028 RMK A01 T00381090  RH  039%=      5-min Rain = 0
KQU1 120213Z 33006KT 04/M09 A3028 RMK A01 T00381090  RH  039%=      5-min Rain = 0
KQU1 120214Z 33007KT 04/M09 A3028 RMK A01 T00371091  RH  038%=      5-min Rain = 0
KQU1 120215Z 34008KT 04/M09 A3028 RMK A01 T00371092  RH  038%=      5-min Rain = 0
KQU1 120216Z 34006KT 04/M09 A3028 RMK A01 T00381090  RH  038%=      5-min Rain = 0
KQU1 120217Z 33006KT 04/M09 A3028 RMK A01 T00381090  RH  039%=      5-min Rain = 0
KQU1 120218Z 35006KT 04/M09 A3028 RMK A01 T00371091  RH  038%=      5-min Rain = 0
KQU1 120219Z 34006KT 04/M09 A3028 RMK A01 T00371088  RH  039%=      5-min Rain = 0
KQU1 120220Z 33005KT 04/M09 A3028 RMK A01 T00371088  RH  040%=      5-min Rain = 0
KQU1 120221Z 34006KT 04/M09 A3028 RMK A01 T00371089  RH  039%=      5-min Rain = 0
KQU1 120222Z 34006KT 04/M09 A3028 RMK A01 T00371089  RH  039%=      5-min Rain = 0
KQU1 120223Z 34007KT 04/M09 A3028 RMK A01 T00371089  RH  039%=      5-min Rain = 0
KQU1 120224Z 34006KT 04/M09 A3028 RMK A01 T00371088  RH  040%=      5-min Rain = 0
KQU1 120225Z 34008KT 04/M09 A3028 RMK A01 T00361089  RH  039%=      5-min Rain = 0
KQU1 120226Z 34006KT 04/M09 A3028 RMK A01 T00371090  RH  039%=      5-min Rain = 0
KQU1 120227Z 34007KT 04/M09 A3028 RMK A01 T00371090  RH  039%=      5-min Rain = 0
KQU1 120228Z 34006KT 04/M09 A3028 RMK A01 T00371090  RH  039%=      5-min Rain = 0
KQU1 120229Z 33005KT 04/M09 A3028 RMK A01 T00371090  RH  039%=      5-min Rain = 0
KQU1 120230Z 34005KT 04/M09 A3028 RMK A01 T00361091  RH  039%=      5-min Rain = 0
KQU1 120231Z 34005KT 04/M09 A3028 RMK A01 T00361091  RH  039%=      5-min Rain = 0
KQU1 120232Z 34005KT 04/M09 A3028 RMK A01 T00361092  RH  039%=      5-min Rain = 0
KQU1 120233Z 34005KT 04/M09 A3028 RMK A01 T00351090  RH  039%=      5-min Rain = 0
KQU1 120234Z 35005KT 04/M09 A3028 RMK A01 T00351090  RH  040%=      5-min Rain = 0
KQU1 120235Z 34005KT 04/M09 A3028 RMK A01 T00351087  RH  040%=      5-min Rain = 0
KQU1 120236Z 34006KT 04/M09 A3028 RMK A01 T00351086  RH  041%=      5-min Rain = 0
KQU1 120237Z 34005KT 04/M09 A3028 RMK A01 T00351087  RH  040%=      5-min Rain = 0
KQU1 120238Z 34005KT 03/M09 A3028 RMK A01 T00341087  RH  041%=      5-min Rain = 0
KQU1 120239Z 36005KT 03/M09 A3028 RMK A01 T00341086  RH  041%=      5-min Rain = 0
KQU1 120240Z 36005KT 03/M08 A3028 RMK A01 T00341084  RH  042%=      5-min Rain = 0
KQU1 120241Z 35005KT 03/M08 A3028 RMK A01 T00341084  RH  042%=      5-min Rain = 0
KQU1 120242Z 36005KT 03/M09 A3028 RMK A01 T00331085  RH  042%=      5-min Rain = 0
KQU1 120243Z 00004KT 03/M09 A3028 RMK A01 T00331086  RH  041%=      5-min Rain = 0
KQU1 120244Z 34005KT 03/M09 A3028 RMK A01 T00331086  RH  041%=      5-min Rain = 0
KQU1 120245Z 35005KT 03/M09 A3028 RMK A01 T00331086  RH  041%=      5-min Rain = 0
KQU1 120246Z 35004KT 03/M09 A3028 RMK A01 T00331085  RH  042%=      5-min Rain = 0
KQU1 120247Z 34004KT 03/M08 A3028 RMK A01 T00331084  RH  042%=      5-min Rain = 0
KQU1 120248Z 34004KT 03/M09 A3028 RMK A01 T00321085  RH  042%=      5-min Rain = 0
KQU1 120249Z 34005KT 03/M09 A3028 RMK A01 T00331086  RH  042%=      5-min Rain = 0
KQU1 120250Z 34003KT 03/M09 A3028 RMK A01 T00331086  RH  042%=      5-min Rain = 0
KQU1 120251Z 34005KT 03/M09 A3029 RMK A01 T00331086  RH  041%=      5-min Rain = 0
KQU1 120252Z 34006KT 03/M09 A3028 RMK A01 T00331088  RH  041%=      5-min Rain = 0
KQU1 120253Z 34005KT 03/M09 A3028 RMK A01 T00341089  RH  040%=      5-min Rain = 0
KQU1 120254Z 35005KT 03/M09 A3028 RMK A01 T00341087  RH  041%=      5-min Rain = 0
KQU1 120255Z 35004KT 03/M09 A3028 RMK A01 T00341085  RH  041%=      5-min Rain = 0
KQU1 120256Z 36005KT 03/M09 A3028 RMK A01 T00341085  RH  042%=      5-min Rain = 0
KQU1 120257Z 35006KT 03/M09 A3028 RMK A01 T00331085  RH  042%=      5-min Rain = 0
KQU1 120258Z 36006KT 03/M09 A3028 RMK A01 T00321087  RH  041%=      5-min Rain = 0
KQU1 120259Z 35006KT 03/M09 A3028 RMK A01 T00321087  RH  041%=      5-min Rain = 0
KQU1 120300Z 35007KT 03/M09 A3028 RMK A01 T00311088  RH  041%=      5-min Rain = 0
KQU1 120301Z 35006KT 03/M09 A3028 RMK A01 T00321087  RH  041%=      5-min Rain = 0
KQU1 120302Z 34006KT 03/M09 A3028 RMK A01 T00321087  RH  041%=      5-min Rain = 0
KQU1 120303Z 34006KT 03/M09 A3028 RMK A01 T00321088  RH  041%=      5-min Rain = 0
KQU1 120304Z 34008KT 03/M09 A3028 RMK A01 T00331088  RH  041%=      5-min Rain = 0
KQU1 120305Z 35007KT 03/M09 A3028 RMK A01 T00331089  RH  040%=      5-min Rain = 0
KQU1 120306Z 33007KT 03/M09 A3028 RMK A01 T00341089  RH  040%=      5-min Rain = 0
KQU1 120307Z 34007KT 04/M09 A3028 RMK A01 T00351090  RH  040%=      5-min Rain = 0
KQU1 120308Z 33008KT 04/M09 A3028 RMK A01 T00351092  RH  039%=      5-min Rain = 0
KQU1 120309Z 34009KT 04/M09 A3028 RMK A01 T00351091  RH  039%=      5-min Rain = 0
KQU1 120310Z 33007KT 04/M09 A3029 RMK A01 T00351091  RH  039%=      5-min Rain = 0
KQU1 120311Z 34008KT 04/M09 A3029 RMK A01 T00361091  RH  039%=      5-min Rain = 0
KQU1 120312Z 33008KT 04/M09 A3029 RMK A01 T00361093  RH  038%=      5-min Rain = 0
KQU1 120313Z 33007KT 04/M09 A3029 RMK A01 T00361093  RH  038%=      5-min Rain = 0
KQU1 120314Z 33006KT 04/M09 A3029 RMK A01 T00351094  RH  038%=      5-min Rain = 0
KQU1 120315Z 34008KT 03/M09 A3028 RMK A01 T00341093  RH  039%=      5-min Rain = 0
KQU1 120316Z 34006KT 04/M09 A3028 RMK A01 T00351093  RH  039%=      5-min Rain = 0
KQU1 120317Z 34007KT 04/M09 A3028 RMK A01 T00351093  RH  039%=      5-min Rain = 0
KQU1 120318Z 35008KT 03/M09 A3028 RMK A01 T00341093  RH  039%=      5-min Rain = 0
KQU1 120319Z 35008KT 04/M09 A3028 RMK A01 T00351092  RH  039%=      5-min Rain = 0
KQU1 120320Z 34010KT 04/M09 A3028 RMK A01 T00351092  RH  039%=      5-min Rain = 0
KQU1 120321Z 35008KT 04/M09 A3029 RMK A01 T00351092  RH  039%=      5-min Rain = 0
KQU1 120322Z 33008KT 04/M09 A3029 RMK A01 T00351092  RH  039%=      5-min Rain = 0
KQU1 120323Z 33007KT 04/M09 A3029 RMK A01 T00351094  RH  038%=      5-min Rain = 0
KQU1 120324Z 35007KT 03/M09 A3029 RMK A01 T00341093  RH  039%=      5-min Rain = 0
KQU1 120325Z 34010KT 04/M09 A3028 RMK A01 T00351092  RH  039%=      5-min Rain = 0
KQU1 120326Z 34008KT 04/M09 A3028 RMK A01 T00351091  RH  039%=      5-min Rain = 0
KQU1 120327Z 35009KT 04/M09 A3028 RMK A01 T00351093  RH  039%=      5-min Rain = 0
KQU1 120328Z 35008KT 04/M09 A3028 RMK A01 T00351093  RH  039%=      5-min Rain = 0
KQU1 120329Z 35005KT 04/M09 A3028 RMK A01 T00351090  RH  040%=      5-min Rain = 0
KQU1 120330Z 35007KT 03/M09 A3028 RMK A01 T00341089  RH  040%=      5-min Rain = 0
KQU1 120331Z 35005KT 03/M09 A3028 RMK A01 T00341089  RH  040%=      5-min Rain = 0
KQU1 120332Z 35007KT 03/M09 A3028 RMK A01 T00341090  RH  040%=      5-min Rain = 0
KQU1 120333Z 35007KT 03/M09 A3028 RMK A01 T00331089  RH  040%=      5-min Rain = 0
KQU1 120334Z 35005KT 03/M09 A3028 RMK A01 T00331089  RH  040%=      5-min Rain = 0
KQU1 120335Z 35005G10KT 03/M09 A3028 RMK A01 T00321088  RH  041%=      5-min Rain = 0
KQU1 120336Z 36008KT 03/M09 A3028 RMK A01 T00321090  RH  040%=      5-min Rain = 0
KQU1 120337Z 35007KT 03/M09 A3028 RMK A01 T00311091  RH  040%=      5-min Rain = 0
KQU1 120338Z 35007KT 03/M09 A3028 RMK A01 T00311090  RH  041%=      5-min Rain = 0
KQU1 120339Z 35006KT 03/M09 A3028 RMK A01 T00311089  RH  041%=      5-min Rain = 0
KQU1 120340Z 35005KT 03/M09 A3028 RMK A01 T00301089  RH  041%=      5-min Rain = 0
KQU1 120341Z 36006KT 03/M09 A3028 RMK A01 T00301089  RH  041%=      5-min Rain = 0
KQU1 120342Z 35005KT 03/M09 A3029 RMK A01 T00291090  RH  041%=      5-min Rain = 0
KQU1 120343Z 36005KT 03/M09 A3029 RMK A01 T00281090  RH  042%=      5-min Rain = 0
KQU1 120344Z 35005KT 03/M09 A3029 RMK A01 T00271090  RH  042%=      5-min Rain = 0
KQU1 120345Z 35004KT 03/M09 A3029 RMK A01 T00261089  RH  043%=      5-min Rain = 0
KQU1 120346Z 34006KT 03/M09 A3029 RMK A01 T00251089  RH  043%=      5-min Rain = 0
KQU1 120347Z 35007KT 03/M09 A3029 RMK A01 T00251089  RH  043%=      5-min Rain = 0
KQU1 120348Z 35007KT 03/M09 A3029 RMK A01 T00261089  RH  043%=      5-min Rain = 0
KQU1 120349Z 35005KT 03/M09 A3029 RMK A01 T00261087  RH  043%=      5-min Rain = 0
KQU1 120350Z 35006KT 03/M09 A3029 RMK A01 T00261087  RH  043%=      5-min Rain = 0
KQU1 120351Z 35006KT 03/M09 A3029 RMK A01 T00261087  RH  043%=      5-min Rain = 0
KQU1 120352Z 35006KT 03/M09 A3029 RMK A01 T00261087  RH  043%=      5-min Rain = 0
KQU1 120353Z 35007KT 03/M09 A3029 RMK A01 T00261088  RH  043%=      5-min Rain = 0
KQU1 120354Z 35006KT 03/M09 A3029 RMK A01 T00261088  RH  043%=      5-min Rain = 0
KQU1 120355Z 35004KT 03/M09 A3028 RMK A01 T00261088  RH  043%=      5-min Rain = 0
KQU1 120356Z 36005KT 03/M09 A3028 RMK A01 T00251086  RH  044%=      5-min Rain = 0
KQU1 120357Z 35006KT 03/M09 A3029 RMK A01 T00251088  RH  043%=      5-min Rain = 0
KQU1 120358Z 36007KT 02/M09 A3029 RMK A01 T00241088  RH  043%=      5-min Rain = 0
KQU1 120359Z 36005KT 02/M09 A3029 RMK A01 T00241087  RH  044%=      5-min Rain = 0
KQU1 120400Z 35004KT 02/M09 A3029 RMK A01 T00241087  RH  044%=      5-min Rain = 0
KQU1 120401Z 34005KT 02/M09 A3029 RMK A01 T00241088  RH  044%=      5-min Rain = 0
KQU1 120402Z 34004KT 02/M09 A3029 RMK A01 T00241086  RH  044%=      5-min Rain = 0
KQU1 120403Z 33006KT 02/M09 A3029 RMK A01 T00241086  RH  044%=      5-min Rain = 0
KQU1 120404Z 34005KT 02/M09 A3029 RMK A01 T00241088  RH  043%=      5-min Rain = 0
KQU1 120405Z 34006KT 02/M09 A3029 RMK A01 T00241090  RH  043%=      5-min Rain = 0
KQU1 120406Z 34006KT 03/M09 A3029 RMK A01 T00251090  RH  042%=      5-min Rain = 0
KQU1 120407Z 34006KT 03/M09 A3029 RMK A01 T00251090  RH  042%=      5-min Rain = 0
KQU1 120408Z 35007KT 03/M09 A3029 RMK A01 T00261090  RH  042%=      5-min Rain = 0
KQU1 120409Z 35005KT 03/M09 A3029 RMK A01 T00261088  RH  043%=      5-min Rain = 0
KQU1 120410Z 35006KT 03/M09 A3029 RMK A01 T00261087  RH  043%=      5-min Rain = 0
KQU1 120411Z 36006KT 03/M09 A3029 RMK A01 T00261087  RH  043%=      5-min Rain = 0
KQU1 120412Z 00006KT 03/M09 A3029 RMK A01 T00261086  RH  043%=      5-min Rain = 0
KQU1 120413Z 35005KT 03/M09 A3029 RMK A01 T00261086  RH  044%=      5-min Rain = 0
KQU1 120414Z 35006KT 03/M09 A3029 RMK A01 T00261086  RH  044%=      5-min Rain = 0
KQU1 120415Z 35005KT 03/M09 A3029 RMK A01 T00261087  RH  043%=      5-min Rain = 0
KQU1 120416Z 34006KT 03/M09 A3029 RMK A01 T00261088  RH  043%=      5-min Rain = 0
KQU1 120417Z 35006KT 03/M09 A3029 RMK A01 T00271088  RH  043%=      5-min Rain = 0
KQU1 120418Z 35007KT 03/M09 A3029 RMK A01 T00271089  RH  042%=      5-min Rain = 0
KQU1 120419Z 35006KT 03/M09 A3029 RMK A01 T00271089  RH  042%=      5-min Rain = 0
KQU1 120420Z 35005KT 03/M09 A3029 RMK A01 T00271088  RH  043%=      5-min Rain = 0
KQU1 120421Z 35005KT 03/M09 A3029 RMK A01 T00261087  RH  043%=      5-min Rain = 0
KQU1 120422Z 35005KT 03/M09 A3029 RMK A01 T00261088  RH  043%=      5-min Rain = 0
KQU1 120423Z 34006KT 03/M09 A3029 RMK A01 T00261086  RH  043%=      5-min Rain = 0
KQU1 120424Z 35006KT 03/M09 A3029 RMK A01 T00261087  RH  043%=      5-min Rain = 0
KQU1 120425Z 35007KT 03/M09 A3029 RMK A01 T00251088  RH  043%=      5-min Rain = 0
KQU1 120426Z 35006KT 03/M09 A3029 RMK A01 T00261088  RH  043%=      5-min Rain = 0
KQU1 120427Z 35007KT 03/M09 A3029 RMK A01 T00261087  RH  043%=      5-min Rain = 0
KQU1 120428Z 35006KT 03/M09 A3029 RMK A01 T00261087  RH  043%=      5-min Rain = 0
KQU1 120429Z 35006KT 03/M09 A3029 RMK A01 T00261086  RH  044%=      5-min Rain = 0
KQU1 120430Z 00004KT 03/M09 A3029 RMK A01 T00251087  RH  043%=      5-min Rain = 0
KQU1 120431Z 00005KT 03/M09 A3029 RMK A01 T00251087  RH  043%=      5-min Rain = 0
KQU1 120432Z 00005KT 02/M09 A3029 RMK A01 T00241087  RH  044%=      5-min Rain = 0
KQU1 120433Z 01004KT 02/M09 A3029 RMK A01 T00241088  RH  043%=      5-min Rain = 0
KQU1 120434Z 00004KT 02/M09 A3029 RMK A01 T00231088  RH  044%=      5-min Rain = 0
KQU1 120435Z 36005KT 02/M09 A3029 RMK A01 T00221088  RH  044%=      5-min Rain = 0
KQU1 120436Z 35004KT 02/M09 A3029 RMK A01 T00211089  RH  044%=      5-min Rain = 0
KQU1 120437Z 35005KT 02/M09 A3029 RMK A01 T00211090  RH  044%=      5-min Rain = 0
KQU1 120438Z 35005KT 02/M09 A3029 RMK A01 T00211089  RH  044%=      5-min Rain = 0
KQU1 120439Z 36005KT 02/M09 A3029 RMK A01 T00211090  RH  044%=      5-min Rain = 0
KQU1 120440Z 01003KT 02/M09 A3029 RMK A01 T00211088  RH  044%=      5-min Rain = 0
KQU1 120441Z 02003KT 02/M09 A3029 RMK A01 T00211088  RH  045%=      5-min Rain = 0
KQU1 120442Z 00003KT 02/M09 A3029 RMK A01 T00201088  RH  044%=      5-min Rain = 0
KQU1 120443Z 01003KT 02/M09 A3029 RMK A01 T00201088  RH  045%=      5-min Rain = 0
KQU1 120444Z 00003KT 02/M09 A3029 RMK A01 T00191087  RH  045%=      5-min Rain = 0
KQU1 120445Z 00004KT 02/M09 A3029 RMK A01 T00191087  RH  045%=      5-min Rain = 0
KQU1 120446Z 00003KT 02/M09 A303 RMK A01 T00181086  RH  046%=      5-min Rain = 0
KQU1 120447Z 00003KT 02/M09 A303 RMK A01 T00181085  RH  046%=      5-min Rain = 0
KQU1 120448Z 01004KT 02/M09 A3029 RMK A01 T00181086  RH  046%=      5-min Rain = 0
KQU1 120449Z 01004KT 02/M09 A3029 RMK A01 T00171087  RH  046%=      5-min Rain = 0
KQU1 120450Z 35003KT 02/M09 A3029 RMK A01 T00171088  RH  046%=      5-min Rain = 0
KQU1 120451Z 00004KT 02/M09 A3029 RMK A01 T00161088  RH  046%=      5-min Rain = 0
KQU1 120452Z 35004KT 02/M09 A3029 RMK A01 T00151088  RH  046%=      5-min Rain = 0
KQU1 120453Z 35005KT 02/M09 A303 RMK A01 T00151089  RH  046%=      5-min Rain = 0
KQU1 120454Z 36004KT 01/M09 A3029 RMK A01 T00141089  RH  046%=      5-min Rain = 0
KQU1 120455Z 36005KT 01/M09 A3029 RMK A01 T00131088  RH  047%=      5-min Rain = 0
KQU1 120456Z 36005KT 01/M09 A3029 RMK A01 T00121086  RH  048%=      5-min Rain = 0
KQU1 120457Z 01006KT 01/M09 A3029 RMK A01 T00121085  RH  048%=      5-min Rain = 0
KQU1 120458Z 00005KT 01/M09 A3029 RMK A01 T00121087  RH  048%=      5-min Rain = 0
KQU1 120459Z 00004KT 01/M09 A3029 RMK A01 T00121087  RH  048%=      5-min Rain = 0
KQU1 120500Z 01004KT 01/M09 A3029 RMK A01 T00121087  RH  048%=      5-min Rain = 0
KQU1 120501Z 00004KT 01/M09 A3029 RMK A01 T00111087  RH  048%=      5-min Rain = 0
KQU1 120502Z 00004KT 01/M09 A3029 RMK A01 T00111088  RH  047%=      5-min Rain = 0
KQU1 120503Z 01003KT 01/M09 A3029 RMK A01 T00111087  RH  048%=      5-min Rain = 0
KQU1 120504Z 01003KT 01/M09 A3029 RMK A01 T00111085  RH  049%=      5-min Rain = 0
KQU1 120505Z 01003KT 01/M09 A3029 RMK A01 T00111086  RH  048%=      5-min Rain = 0
KQU1 120506Z 02003KT 01/M09 A3029 RMK A01 T00101088  RH  048%=      5-min Rain = 0
KQU1 120507Z 01003KT 01/M09 A3029 RMK A01 T00101089  RH  048%=      5-min Rain = 0
KQU1 120508Z 01003KT 01/M09 A3029 RMK A01 T00091090  RH  048%=      5-min Rain = 0
KQU1 120509Z 01002KT 01/M09 A3029 RMK A01 T00091089  RH  048%=      5-min Rain = 0
KQU1 120510Z 01003KT 01/M09 A3029 RMK A01 T00081090  RH  048%=      5-min Rain = 0
KQU1 120511Z 02003KT 01/M09 A3029 RMK A01 T00081089  RH  048%=      5-min Rain = 0
KQU1 120512Z 01002KT 01/M09 A3029 RMK A01 T00071090  RH  048%=      5-min Rain = 0
KQU1 120513Z 02002KT 01/M09 A3029 RMK A01 T00071089  RH  048%=      5-min Rain = 0
KQU1 120514Z 02002KT 01/M09 A3029 RMK A01 T00071089  RH  049%=      5-min Rain = 0
KQU1 120515Z 02001KT 01/M09 A3029 RMK A01 T00071088  RH  049%=      5-min Rain = 0
KQU1 120516Z 01002KT 01/M09 A3029 RMK A01 T00071088  RH  049%=      5-min Rain = 0
KQU1 120517Z 02001KT 01/M09 A3029 RMK A01 T00061089  RH  049%=      5-min Rain = 0
KQU1 120518Z 00001KT 01/M09 A3029 RMK A01 T00061089  RH  049%=      5-min Rain = 0
KQU1 120519Z 00001KT 01/M09 A3029 RMK A01 T00051090  RH  049%=      5-min Rain = 0
KQU1 120520Z 35000KT 00/M09 A3029 RMK A01 T00041090  RH  049%=      5-min Rain = 0
KQU1 120521Z 34002KT 00/M09 A3029 RMK A01 T00041090  RH  049%=      5-min Rain = 0
KQU1 120522Z 36003KT 00/M09 A3029 RMK A01 T00041091  RH  049%=      5-min Rain = 0
KQU1 120523Z 00003KT 00/M09 A3029 RMK A01 T00041091  RH  049%=      5-min Rain = 0
KQU1 120524Z 01002KT 00/M09 A3029 RMK A01 T00031092  RH  049%=      5-min Rain = 0
KQU1 120525Z 01002KT 00/M10 A3029 RMK A01 T00011095  RH  048%=      5-min Rain = 0
KQU1 120526Z 00002KT 00/10 A3029 RMK A01 T00-00-96  RH  049%=      5-min Rain = 0
KQU1 120527Z 00003KT M00/M10 A3029 RMK A01 T10011095  RH  049%=      5-min Rain = 0
KQU1 120528Z 01002KT M00/M09 A303 RMK A01 T10011094  RH  049%=      5-min Rain = 0
KQU1 120529Z 01002KT M00/M09 A303 RMK A01 T10011093  RH  050%=      5-min Rain = 0
KQU1 120530Z 01002KT M00/M09 A303 RMK A01 T10011093  RH  050%=      5-min Rain = 0
KQU1 120531Z 01001KT M00/M09 A303 RMK A01 T10011090  RH  051%=      5-min Rain = 0
KQU1 120532Z 02001KT M00/M09 A303 RMK A01 T10011091  RH  051%=      5-min Rain = 0
KQU1 120533Z 02001KT M00/M09 A303 RMK A01 T10011090  RH  051%=      5-min Rain = 0
KQU1 120534Z 35001KT M00/M09 A303 RMK A01 T10011089  RH  052%=      5-min Rain = 0
KQU1 120535Z 01002KT M00/M09 A303 RMK A01 T10021088  RH  052%=      5-min Rain = 0
KQU1 120536Z 02003KT M00/M09 A303 RMK A01 T10021087  RH  053%=      5-min Rain = 0
KQU1 120537Z 02003KT M00/M09 A303 RMK A01 T10031088  RH  052%=      5-min Rain = 0
KQU1 120538Z 03002KT M00/M09 A303 RMK A01 T10041085  RH  054%=      5-min Rain = 0
KQU1 120539Z 03002KT M00/M08 A303 RMK A01 T10041081  RH  056%=      5-min Rain = 0
KQU1 120540Z 02002KT M00/M08 A3029 RMK A01 T10041079  RH  057%=      5-min Rain = 0
KQU1 120541Z 03001KT M01/M08 A3029 RMK A01 T10051078  RH  057%=      5-min Rain = 0
KQU1 120542Z 02001KT M01/M08 A3029 RMK A01 T10051079  RH  057%=      5-min Rain = 0
KQU1 120543Z 03001KT M01/M08 A3029 RMK A01 T10061081  RH  057%=      5-min Rain = 0
KQU1 120544Z 03002KT M01/M08 A3029 RMK A01 T10061082  RH  057%=      5-min Rain = 0
KQU1 120545Z 03002KT M01/M08 A3029 RMK A01 T10071083  RH  056%=      5-min Rain = 0
KQU1 120546Z 03002KT M01/M09 A3029 RMK A01 T10071085  RH  056%=      5-min Rain = 0
KQU1 120547Z 03002KT M01/M09 A3029 RMK A01 T10071086  RH  055%=      5-min Rain = 0
KQU1 120548Z 03002KT M01/M09 A3029 RMK A01 T10081087  RH  055%=      5-min Rain = 0
KQU1 120549Z 03002KT M01/M09 A3029 RMK A01 T10081088  RH  055%=      5-min Rain = 0
KQU1 120550Z 03002KT M01/M09 A3029 RMK A01 T10091088  RH  055%=      5-min Rain = 0
KQU1 120551Z 03002KT M01/M09 A3029 RMK A01 T10091088  RH  055%=      5-min Rain = 0
KQU1 120552Z 03002KT M01/M09 A3029 RMK A01 T10091088  RH  055%=      5-min Rain = 0
KQU1 120553Z 02002KT M01/M09 A3029 RMK A01 T10091087  RH  056%=      5-min Rain = 0
KQU1 120554Z 03002KT M01/M09 A3029 RMK A01 T10101087  RH  056%=      5-min Rain = 0
KQU1 120555Z 03003KT M01/M09 A3029 RMK A01 T10101085  RH  057%=      5-min Rain = 0
KQU1 120556Z 03003KT M01/M08 A3029 RMK A01 T10091084  RH  057%=      5-min Rain = 0
KQU1 120557Z 02003KT M01/M08 A3029 RMK A01 T10091081  RH  058%=      5-min Rain = 0
KQU1 120558Z 02003KT M01/M08 A3029 RMK A01 T10091080  RH  058%=      5-min Rain = 0
KQU1 120559Z 02003KT M01/M08 A3029 RMK A01 T10081079  RH  059%=      5-min Rain = 0

Page generated in 0.0732 seconds.